Wetterdaten: Freitag, 01.05.2015
Datum Zeit Temp. Aussen +5cm Feuchte Auss Luftdruck Regen Sonnenschein Regendauer Solar Windben
01.05.2015 00:00 5,9 C 5,0 C 88 % 1010,6 hPa 0,0 l/m 0 min 0 min 0 W/m 8,4 km/h (2 Bft)
01.05.2015 00:02 5,9 C 5,0 C 88 % 1010,7 hPa 0,0 l/m 0 min 0 min 0 W/m 6,3 km/h (2 Bft)
01.05.2015 00:05 5,8 C 5,0 C 89 % 1010,7 hPa 0,0 l/m 0 min 0 min 0 W/m 6,3 km/h (2 Bft)
01.05.2015 00:08 5,8 C 5,0 C 89 % 1010,8 hPa 0,0 l/m 0 min 0 min 0 W/m 8,4 km/h (2 Bft)
01.05.2015 00:10 5,8 C 5,0 C 89 % 1010,7 hPa 0,0 l/m 0 min 0 min 0 W/m 8,4 km/h (2 Bft)
01.05.2015 00:12 5,8 C 5,0 C 89 % 1010,7 hPa 0,0 l/m 0 min 0 min 0 W/m 8,4 km/h (2 Bft)
01.05.2015 00:14 5,8 C 5,0 C 89 % 1010,7 hPa 0,0 l/m 0 min 0 min 0 W/m 8,4 km/h (2 Bft)
01.05.2015 00:16 5,8 C 5,0 C 89 % 1010,7 hPa 0,0 l/m 0 min 0 min 0 W/m 8,4 km/h (2 Bft)
01.05.2015 00:18 5,8 C 5,0 C 89 % 1010,8 hPa 0,0 l/m 0 min 0 min 0 W/m 6,3 km/h (2 Bft)
01.05.2015 00:20 5,7 C 5,0 C 90 % 1010,8 hPa 0,0 l/m 0 min 0 min 0 W/m 6,3 km/h (2 Bft)
01.05.2015 00:22 5,7 C 5,0 C 90 % 1010,7 hPa 0,0 l/m 0 min 0 min 0 W/m 6,3 km/h (2 Bft)
01.05.2015 00:24 5,7 C 5,0 C 90 % 1010,8 hPa 0,0 l/m 0 min 0 min 0 W/m 6,3 km/h (2 Bft)
01.05.2015 00:26 5,7 C 5,0 C 90 % 1010,7 hPa 0,0 l/m 0 min 0 min 0 W/m 6,3 km/h (2 Bft)
01.05.2015 00:28 5,7 C 5,0 C 90 % 1010,7 hPa 0,0 l/m 0 min 0 min 0 W/m 4,2 km/h (1 Bft)
01.05.2015 00:30 5,6 C 5,0 C 90 % 1010,7 hPa 0,0 l/m 0 min 0 min 0 W/m 6,3 km/h (2 Bft)
01.05.2015 00:32 5,6 C 5,0 C 90 % 1010,7 hPa 0,0 l/m 0 min 0 min 0 W/m 4,2 km/h (1 Bft)
01.05.2015 00:34 5,6 C 5,0 C 90 % 1010,8 hPa 0,0 l/m 0 min 0 min 0 W/m 6,3 km/h (2 Bft)
01.05.2015 00:36 5,6 C 5,0 C 90 % 1010,7 hPa 0,0 l/m 0 min 0 min 0 W/m 8,4 km/h (2 Bft)
01.05.2015 00:38 5,6 C 5,0 C 90 % 1010,8 hPa 0,0 l/m 0 min 0 min 0 W/m 6,3 km/h (2 Bft)
01.05.2015 00:40 5,6 C 5,0 C 90 % 1010,7 hPa 0,0 l/m 0 min 0 min 0 W/m 6,3 km/h (2 Bft)
01.05.2015 00:42 5,5 C 5,0 C 90 % 1010,7 hPa 0,0 l/m 0 min 0 min 0 W/m 6,3 km/h (2 Bft)
01.05.2015 00:44 5,5 C 5,0 C 90 % 1010,7 hPa 0,0 l/m 0 min 0 min 0 W/m 4,2 km/h (1 Bft)
01.05.2015 00:46 5,4 C 5,0 C 90 % 1010,7 hPa 0,0 l/m 0 min 0 min 0 W/m 6,3 km/h (2 Bft)
01.05.2015 00:48 5,4 C 4,4 C 90 % 1010,7 hPa 0,0 l/m 0 min 0 min 0 W/m 6,3 km/h (2 Bft)
01.05.2015 00:50 5,4 C 4,4 C 90 % 1010,7 hPa 0,0 l/m 0 min 0 min 0 W/m 6,3 km/h (2 Bft)
01.05.2015 00:52 5,4 C 4,4 C 90 % 1010,7 hPa 0,0 l/m 0 min 0 min 0 W/m 4,2 km/h (1 Bft)
01.05.2015 00:54 5,4 C 4,4 C 90 % 1010,8 hPa 0,0 l/m 0 min 0 min 0 W/m 2,1 km/h (1 Bft)
01.05.2015 00:56 5,3 C 4,4 C 90 % 1010,7 hPa 0,0 l/m 0 min 0 min 0 W/m 6,3 km/h (2 Bft)
01.05.2015 00:58 5,3 C 4,4 C 90 % 1010,7 hPa 0,0 l/m 0 min 0 min 0 W/m 6,3 km/h (2 Bft)
01.05.2015 01:00 5,3 C 4,4 C 90 % 1010,7 hPa 0,0 l/m 0 min 0 min 0 W/m 4,2 km/h (1 Bft)
01.05.2015 01:02 5,2 C 4,4 C 90 % 1010,7 hPa 0,0 l/m 0 min 0 min 0 W/m 4,2 km/h (1 Bft)
01.05.2015 01:04 5,2 C 4,4 C 90 % 1010,6 hPa 0,0 l/m 0 min 0 min 0 W/m 6,3 km/h (2 Bft)
01.05.2015 01:06 5,2 C 4,4 C 90 % 1010,7 hPa 0,0 l/m 0 min 0 min 0 W/m 4,2 km/h (1 Bft)
01.05.2015 01:08 5,2 C 4,4 C 90 % 1010,7 hPa 0,0 l/m 0 min 0 min 0 W/m 4,2 km/h (1 Bft)
01.05.2015 01:10 5,2 C 4,4 C 91 % 1010,7 hPa 0,0 l/m 0 min 0 min 0 W/m 4,2 km/h (1 Bft)
01.05.2015 01:12 5,1 C 4,4 C 91 % 1010,6 hPa 0,0 l/m 0 min 0 min 0 W/m 4,2 km/h (1 Bft)
01.05.2015 01:14 5,1 C 4,4 C 91 % 1010,6 hPa 0,0 l/m 0 min 0 min 0 W/m 4,2 km/h (1 Bft)
01.05.2015 01:16 5,1 C 4,4 C 91 % 1010,6 hPa 0,0 l/m 0 min 0 min 0 W/m 4,2 km/h (1 Bft)
01.05.2015 01:18 5,1 C 4,4 C 91 % 1010,6 hPa 0,0 l/m 0 min 0 min 0 W/m 8,4 km/h (2 Bft)
01.05.2015 01:20 5,1 C 4,4 C 91 % 1010,6 hPa 0,0 l/m 0 min 0 min 0 W/m 6,3 km/h (2 Bft)
01.05.2015 01:22 5,0 C 4,4 C 91 % 1010,6 hPa 0,0 l/m 0 min 0 min 0 W/m 10,5 km/h (2 Bft)
01.05.2015 01:24 5,0 C 4,4 C 91 % 1010,5 hPa 0,0 l/m 0 min 0 min 0 W/m 10,5 km/h (2 Bft)
01.05.2015 01:26 5,0 C 4,4 C 91 % 1010,6 hPa 0,0 l/m 0 min 0 min 0 W/m 4,2 km/h (1 Bft)
01.05.2015 01:28 5,0 C 4,4 C 91 % 1010,5 hPa 0,0 l/m 0 min 0 min 0 W/m 4,2 km/h (1 Bft)
01.05.2015 01:30 4,9 C 4,4 C 91 % 1010,4 hPa 0,0 l/m 0 min 0 min 0 W/m 4,2 km/h (1 Bft)
01.05.2015 01:32 4,9 C 4,4 C 91 % 1010,5 hPa 0,0 l/m 0 min 0 min 0 W/m 4,2 km/h (1 Bft)
01.05.2015 01:34 4,9 C 4,4 C 91 % 1010,5 hPa 0,0 l/m 0 min 0 min 0 W/m 6,3 km/h (2 Bft)
01.05.2015 01:36 4,9 C 4,4 C 91 % 1010,5 hPa 0,0 l/m 0 min 0 min 0 W/m 4,2 km/h (1 Bft)
01.05.2015 01:38 4,9 C 4,4 C 91 % 1010,5 hPa 0,0 l/m 0 min 0 min 0 W/m 6,3 km/h (2 Bft)
01.05.2015 01:40 4,9 C 4,4 C 91 % 1010,5 hPa 0,0 l/m 0 min 0 min 0 W/m 6,3 km/h (2 Bft)
01.05.2015 01:42 4,9 C 4,4 C 91 % 1010,5 hPa 0,0 l/m 0 min 0 min 0 W/m 6,3 km/h (2 Bft)
01.05.2015 01:44 4,8 C 4,4 C 91 % 1010,4 hPa 0,0 l/m 0 min 0 min 0 W/m 6,3 km/h (2 Bft)
01.05.2015 01:46 4,8 C 4,4 C 91 % 1010,4 hPa 0,0 l/m 0 min 0 min 0 W/m 6,3 km/h (2 Bft)
01.05.2015 01:48 4,8 C 4,4 C 91 % 1010,4 hPa 0,0 l/m 0 min 0 min 0 W/m 4,2 km/h (1 Bft)
01.05.2015 01:50 4,8 C 4,4 C 91 % 1010,4 hPa 0,0 l/m 0 min 0 min 0 W/m 6,3 km/h (2 Bft)
01.05.2015 01:52 4,8 C 4,4 C 91 % 1010,4 hPa 0,0 l/m 0 min 0 min 0 W/m 6,3 km/h (2 Bft)
01.05.2015 01:54 4,7 C 4,4 C 91 % 1010,4 hPa 0,0 l/m 0 min 0 min 0 W/m 6,3 km/h (2 Bft)
01.05.2015 01:56 4,7 C 4,4 C 91 % 1010,4 hPa 0,0 l/m 0 min 0 min 0 W/m 8,4 km/h (2 Bft)
01.05.2015 01:58 4,7 C 4,4 C 91 % 1010,4 hPa 0,0 l/m 0 min 0 min 0 W/m 4,2 km/h (1 Bft)
01.05.2015 02:00 4,7 C 4,4 C 91 % 1010,3 hPa 0,0 l/m 0 min 0 min 0 W/m 6,3 km/h (2 Bft)
01.05.2015 02:02 4,7 C 4,4 C 91 % 1010,3 hPa 0,0 l/m 0 min 0 min 0 W/m 4,2 km/h (1 Bft)
01.05.2015 02:04 4,7 C 4,4 C 91 % 1010,2 hPa 0,0 l/m 0 min 0 min 0 W/m 8,4 km/h (2 Bft)
01.05.2015 02:06 4,7 C 4,4 C 91 % 1010,2 hPa 0,0 l/m 0 min 0 min 0 W/m 6,3 km/h (2 Bft)
01.05.2015 02:08 4,7 C 4,4 C 91 % 1010,3 hPa 0,0 l/m 0 min 0 min 0 W/m 6,3 km/h (2 Bft)
01.05.2015 02:10 4,6 C 4,4 C 92 % 1010,3 hPa 0,0 l/m 0 min 0 min 0 W/m 6,3 km/h (2 Bft)
01.05.2015 02:12 4,6 C 4,4 C 92 % 1010,1 hPa 0,0 l/m 0 min 0 min 0 W/m 6,3 km/h (2 Bft)
01.05.2015 02:14 4,6 C 4,4 C 92 % 1010,1 hPa 0,0 l/m 0 min 0 min 0 W/m 6,3 km/h (2 Bft)
01.05.2015 02:16 4,6 C 4,4 C 92 % 1010,1 hPa 0,0 l/m 0 min 0 min 0 W/m 6,3 km/h (2 Bft)
01.05.2015 02:18 4,6 C 4,4 C 92 % 1010,0 hPa 0,0 l/m 0 min 0 min 0 W/m 4,2 km/h (1 Bft)
01.05.2015 02:20 4,6 C 4,4 C 92 % 1010,0 hPa 0,0 l/m 0 min 0 min 0 W/m 6,3 km/h (2 Bft)
01.05.2015 02:22 4,6 C 4,4 C 92 % 1010,0 hPa 0,0 l/m 0 min 0 min 0 W/m 6,3 km/h (2 Bft)
01.05.2015 02:24 4,5 C 4,4 C 92 % 1010,0 hPa 0,0 l/m 0 min 0 min 0 W/m 6,3 km/h (2 Bft)
01.05.2015 02:26 4,5 C 4,4 C 92 % 1010,0 hPa 0,0 l/m 0 min 0 min 0 W/m 6,3 km/h (2 Bft)
01.05.2015 02:28 4,5 C 4,4 C 92 % 1009,9 hPa 0,0 l/m 0 min 0 min 0 W/m 4,2 km/h (1 Bft)
01.05.2015 02:30 4,5 C 4,4 C 92 % 1009,9 hPa 0,0 l/m 0 min 0 min 0 W/m 6,3 km/h (2 Bft)
01.05.2015 02:32 4,5 C 4,4 C 92 % 1010,0 hPa 0,0 l/m 0 min 0 min 0 W/m 4,2 km/h (1 Bft)
01.05.2015 02:34 4,4 C 4,4 C 92 % 1009,9 hPa 0,0 l/m 0 min 0 min 0 W/m 2,1 km/h (1 Bft)
01.05.2015 02:36 4,4 C 3,9 C 92 % 1009,9 hPa 0,0 l/m 0 min 0 min 0 W/m 2,1 km/h (1 Bft)
01.05.2015 02:38 4,4 C 3,9 C 92 % 1009,9 hPa 0,0 l/m 0 min 0 min 0 W/m 4,2 km/h (1 Bft)
01.05.2015 02:40 4,4 C 3,9 C 92 % 1009,9 hPa 0,0 l/m 0 min 0 min 0 W/m 4,2 km/h (1 Bft)
01.05.2015 02:42 4,4 C 3,9 C 92 % 1009,9 hPa 0,0 l/m 0 min 0 min 0 W/m 4,2 km/h (1 Bft)
01.05.2015 02:44 4,4 C 3,9 C 92 % 1010,0 hPa 0,0 l/m 0 min 0 min 0 W/m 4,2 km/h (1 Bft)
01.05.2015 02:46 4,3 C 3,9 C 92 % 1009,9 hPa 0,0 l/m 0 min 0 min 0 W/m 4,2 km/h (1 Bft)
01.05.2015 02:48 4,3 C 3,9 C 92 % 1010,0 hPa 0,0 l/m 0 min 0 min 0 W/m 4,2 km/h (1 Bft)
01.05.2015 02:50 4,3 C 3,9 C 92 % 1010,0 hPa 0,0 l/m 0 min 0 min 0 W/m 6,3 km/h (2 Bft)
01.05.2015 02:52 4,3 C 3,9 C 92 % 1010,0 hPa 0,0 l/m 0 min 0 min 0 W/m 6,3 km/h (2 Bft)
01.05.2015 02:54 4,3 C 3,9 C 92 % 1009,9 hPa 0,0 l/m 0 min 0 min 0 W/m 4,2 km/h (1 Bft)
01.05.2015 02:56 4,2 C 3,9 C 92 % 1010,0 hPa 0,0 l/m 0 min 0 min 0 W/m 2,1 km/h (1 Bft)
01.05.2015 02:58 4,2 C 3,9 C 92 % 1009,9 hPa 0,0 l/m 0 min 0 min 0 W/m 2,1 km/h (1 Bft)
01.05.2015 03:00 4,2 C 3,9 C 92 % 1009,9 hPa 0,0 l/m 0 min 0 min 0 W/m 4,2 km/h (1 Bft)
01.05.2015 03:02 4,2 C 3,9 C 92 % 1010,0 hPa 0,0 l/m 0 min 0 min 0 W/m 4,2 km/h (1 Bft)
01.05.2015 03:04 4,2 C 3,9 C 92 % 1009,9 hPa 0,0 l/m 0 min 0 min 0 W/m 4,2 km/h (1 Bft)
01.05.2015 03:06 4,2 C 3,9 C 92 % 1010,0 hPa 0,0 l/m 0 min 0 min 0 W/m 4,2 km/h (1 Bft)
01.05.2015 03:08 4,2 C 3,9 C 92 % 1010,0 hPa 0,0 l/m 0 min 0 min 0 W/m 4,2 km/h (1 Bft)
01.05.2015 03:10 4,1 C 3,9 C 92 % 1010,0 hPa 0,0 l/m 0 min 0 min 0 W/m 6,3 km/h (2 Bft)
01.05.2015 03:12 4,1 C 3,9 C 92 % 1010,0 hPa 0,0 l/m 0 min 0 min 0 W/m 6,3 km/h (2 Bft)
01.05.2015 03:14 4,1 C 3,9 C 92 % 1010,0 hPa 0,0 l/m 0 min 0 min 0 W/m 4,2 km/h (1 Bft)
01.05.2015 03:16 4,1 C 3,9 C 92 % 1010,1 hPa 0,0 l/m 0 min 0 min 0 W/m 4,2 km/h (1 Bft)
01.05.2015 03:18 4,1 C 3,9 C 92 % 1010,0 hPa 0,0 l/m 0 min 0 min 0 W/m 4,2 km/h (1 Bft)
01.05.2015 03:20 4,1 C 3,9 C 92 % 1010,0 hPa 0,0 l/m 0 min 0 min 0 W/m 4,2 km/h (1 Bft)
01.05.2015 03:22 4,0 C 3,9 C 92 % 1010,0 hPa 0,0 l/m 0 min 0 min 0 W/m 2,1 km/h (1 Bft)
01.05.2015 03:24 4,0 C 3,9 C 92 % 1010,1 hPa 0,0 l/m 0 min 0 min 0 W/m 2,1 km/h (1 Bft)
01.05.2015 03:26 4,0 C 3,9 C 92 % 1010,0 hPa 0,0 l/m 0 min 0 min 0 W/m 2,1 km/h (1 Bft)
01.05.2015 03:28 3,9 C 3,9 C 92 % 1010,0 hPa 0,0 l/m 0 min 0 min 0 W/m 2,1 km/h (1 Bft)
01.05.2015 03:30 3,9 C 3,9 C 92 % 1010,0 hPa 0,0 l/m 0 min 0 min 0 W/m 6,3 km/h (2 Bft)
01.05.2015 03:32 3,9 C 3,9 C 92 % 1010,1 hPa 0,0 l/m 0 min 0 min 0 W/m 2,1 km/h (1 Bft)
01.05.2015 03:34 3,9 C 3,9 C 92 % 1010,0 hPa 0,0 l/m 0 min 0 min 0 W/m 6,3 km/h (2 Bft)
01.05.2015 03:36 3,8 C 3,9 C 92 % 1010,0 hPa 0,0 l/m 0 min 0 min 0 W/m 8,4 km/h (2 Bft)
01.05.2015 03:38 3,8 C 3,9 C 92 % 1010,0 hPa 0,0 l/m 0 min 0 min 0 W/m 6,3 km/h (2 Bft)
01.05.2015 03:40 3,8 C 3,9 C 92 % 1009,9 hPa 0,0 l/m 0 min 0 min 0 W/m 4,2 km/h (1 Bft)
01.05.2015 03:42 3,8 C 3,3 C 92 % 1010,0 hPa 0,0 l/m 0 min 0 min 0 W/m 6,3 km/h (2 Bft)
01.05.2015 03:44 3,8 C 3,9 C 92 % 1009,8 hPa 0,0 l/m 0 min 0 min 0 W/m 6,3 km/h (2 Bft)
01.05.2015 03:46 3,7 C 3,9 C 92 % 1009,8 hPa 0,0 l/m 0 min 0 min 0 W/m 8,4 km/h (2 Bft)
01.05.2015 03:48 3,7 C 3,9 C 92 % 1009,8 hPa 0,0 l/m 0 min 0 min 0 W/m 6,3 km/h (2 Bft)
01.05.2015 03:50 3,7 C 3,3 C 92 % 1009,9 hPa 0,0 l/m 0 min 0 min 0 W/m 8,4 km/h (2 Bft)
01.05.2015 03:52 3,7 C 3,9 C 92 % 1010,0 hPa 0,0 l/m 0 min 0 min 0 W/m 6,3 km/h (2 Bft)
01.05.2015 03:54 3,7 C 3,9 C 92 % 1010,0 hPa 0,0 l/m 0 min 0 min 0 W/m 8,4 km/h (2 Bft)
01.05.2015 03:56 3,7 C 3,9 C 92 % 1010,0 hPa 0,0 l/m 0 min 0 min 0 W/m 6,3 km/h (2 Bft)
01.05.2015 03:58 3,7 C 3,9 C 92 % 1010,0 hPa 0,0 l/m 0 min 0 min 0 W/m 6,3 km/h (2 Bft)
01.05.2015 04:00 3,7 C 3,9 C 92 % 1010,0 hPa 0,0 l/m 0 min 0 min 0 W/m 4,2 km/h (1 Bft)
01.05.2015 04:02 3,7 C 3,9 C 93 % 1010,0 hPa 0,0 l/m 0 min 0 min 0 W/m 4,2 km/h (1 Bft)
01.05.2015 04:04 3,7 C 3,9 C 93 % 1009,9 hPa 0,0 l/m 0 min 0 min 0 W/m 4,2 km/h (1 Bft)
01.05.2015 04:06 3,7 C 3,9 C 93 % 1010,0 hPa 0,0 l/m 0 min 0 min 0 W/m 4,2 km/h (1 Bft)
01.05.2015 04:08 3,7 C 3,9 C 93 % 1009,9 hPa 0,0 l/m 0 min 0 min 0 W/m 4,2 km/h (1 Bft)
01.05.2015 04:10 3,7 C 3,3 C 93 % 1009,9 hPa 0,0 l/m 0 min 0 min 0 W/m 4,2 km/h (1 Bft)
01.05.2015 04:12 3,7 C 3,3 C 93 % 1009,9 hPa 0,0 l/m 0 min 0 min 0 W/m 4,2 km/h (1 Bft)
01.05.2015 04:14 3,7 C 3,3 C 93 % 1009,9 hPa 0,0 l/m 0 min 0 min 0 W/m 4,2 km/h (1 Bft)
01.05.2015 04:16 3,7 C 3,3 C 93 % 1009,9 hPa 0,0 l/m 0 min 0 min 0 W/m 4,2 km/h (1 Bft)
01.05.2015 04:18 3,7 C 3,3 C 93 % 1009,9 hPa 0,0 l/m 0 min 0 min 0 W/m 2,1 km/h (1 Bft)
01.05.2015 04:20 3,6 C 3,3 C 93 % 1009,9 hPa 0,0 l/m 0 min 0 min 0 W/m 4,2 km/h (1 Bft)
01.05.2015 04:22 3,6 C 3,3 C 93 % 1010,0 hPa 0,0 l/m 0 min 0 min 0 W/m 4,2 km/h (1 Bft)
01.05.2015 04:24 3,6 C 3,3 C 93 % 1009,9 hPa 0,0 l/m 0 min 0 min 0 W/m 4,2 km/h (1 Bft)
01.05.2015 04:26 3,6 C 3,3 C 93 % 1009,9 hPa 0,0 l/m 0 min 0 min 0 W/m 4,2 km/h (1 Bft)
01.05.2015 04:28 3,6 C 3,3 C 93 % 1009,9 hPa 0,0 l/m 0 min 0 min 0 W/m 4,2 km/h (1 Bft)
01.05.2015 04:30 3,6 C 3,3 C 93 % 1009,9 hPa 0,0 l/m 0 min 0 min 0 W/m 2,1 km/h (1 Bft)
01.05.2015 04:32 3,5 C 3,3 C 93 % 1009,8 hPa 0,0 l/m 0 min 0 min 0 W/m 4,2 km/h (1 Bft)
01.05.2015 04:34 3,5 C 3,3 C 93 % 1009,8 hPa 0,0 l/m 0 min 0 min 0 W/m 4,2 km/h (1 Bft)
01.05.2015 04:36 3,5 C 3,3 C 93 % 1009,8 hPa 0,0 l/m 0 min 0 min 0 W/m 4,2 km/h (1 Bft)
01.05.2015 04:38 3,5 C 3,3 C 93 % 1009,8 hPa 0,0 l/m 0 min 0 min 0 W/m 4,2 km/h (1 Bft)
01.05.2015 04:40 3,4 C 3,3 C 93 % 1009,8 hPa 0,0 l/m 0 min 0 min 0 W/m 2,1 km/h (1 Bft)
01.05.2015 04:42 3,4 C 3,3 C 93 % 1009,9 hPa 0,0 l/m 0 min 0 min 0 W/m 2,1 km/h (1 Bft)
01.05.2015 04:44 3,4 C 3,3 C 93 % 1009,8 hPa 0,0 l/m 0 min 0 min 0 W/m 2,1 km/h (1 Bft)
01.05.2015 04:46 3,4 C 3,3 C 93 % 1009,8 hPa 0,0 l/m 0 min 0 min 0 W/m 2,1 km/h (1 Bft)
01.05.2015 04:48 3,4 C 3,3 C 93 % 1009,8 hPa 0,0 l/m 0 min 0 min 0 W/m 2,1 km/h (1 Bft)
01.05.2015 04:50 3,4 C 3,3 C 93 % 1009,8 hPa 0,0 l/m 0 min 0 min 0 W/m 2,1 km/h (1 Bft)
01.05.2015 04:52 3,4 C 3,3 C 93 % 1009,7 hPa 0,0 l/m 0 min 0 min 0 W/m 2,1 km/h (1 Bft)
01.05.2015 04:54 3,3 C 3,3 C 93 % 1009,8 hPa 0,0 l/m 0 min 0 min 0 W/m 2,1 km/h (1 Bft)
01.05.2015 04:56 3,3 C 3,3 C 93 % 1009,7 hPa 0,0 l/m 0 min 0 min 0 W/m 4,2 km/h (1 Bft)
01.05.2015 04:58 3,3 C 3,3 C 93 % 1009,7 hPa 0,0 l/m 0 min 0 min 0 W/m 4,2 km/h (1 Bft)
01.05.2015 05:00 3,3 C 3,3 C 93 % 1009,7 hPa 0,0 l/m 0 min 0 min 0 W/m 2,1 km/h (1 Bft)
01.05.2015 05:02 3,3 C 3,3 C 93 % 1009,7 hPa 0,0 l/m 0 min 0 min 0 W/m 4,2 km/h (1 Bft)
01.05.2015 05:04 3,3 C 3,3 C 93 % 1009,7 hPa 0,0 l/m 0 min 0 min 0 W/m 4,2 km/h (1 Bft)
01.05.2015 05:06 3,3 C 3,3 C 93 % 1009,7 hPa 0,0 l/m 0 min 0 min 0 W/m 4,2 km/h (1 Bft)
01.05.2015 05:08 3,2 C 3,3 C 93 % 1009,6 hPa 0,0 l/m 0 min 0 min 0 W/m 2,1 km/h (1 Bft)
01.05.2015 05:10 3,2 C 3,3 C 93 % 1009,6 hPa 0,0 l/m 0 min 0 min 0 W/m 4,2 km/h (1 Bft)
01.05.2015 05:12 3,2 C 3,3 C 93 % 1009,6 hPa 0,0 l/m 0 min 0 min 0 W/m 4,2 km/h (1 Bft)
01.05.2015 05:14 3,2 C 3,3 C 93 % 1009,6 hPa 0,0 l/m 0 min 0 min 0 W/m 4,2 km/h (1 Bft)
01.05.2015 05:16 3,2 C 3,3 C 93 % 1009,6 hPa 0,0 l/m 0 min 0 min 0 W/m 4,2 km/h (1 Bft)
01.05.2015 05:18 3,1 C 3,3 C 93 % 1009,5 hPa 0,0 l/m 0 min 0 min 0 W/m 2,1 km/h (1 Bft)
01.05.2015 05:20 3,1 C 3,3 C 93 % 1009,5 hPa 0,0 l/m 0 min 0 min 0 W/m 2,1 km/h (1 Bft)
01.05.2015 05:22 3,1 C 3,3 C 93 % 1009,5 hPa 0,0 l/m 0 min 0 min 0 W/m 0,0 km/h (0 Bft)
01.05.2015 05:24 3,1 C 3,3 C 93 % 1009,4 hPa 0,0 l/m 0 min 0 min 0 W/m 2,1 km/h (1 Bft)
01.05.2015 05:26 3,1 C 3,3 C 93 % 1009,5 hPa 0,0 l/m 0 min 0 min 0 W/m 2,1 km/h (1 Bft)
01.05.2015 05:28 3,1 C 3,3 C 93 % 1009,5 hPa 0,0 l/m 0 min 0 min 0 W/m 2,1 km/h (1 Bft)
01.05.2015 05:30 3,0 C 3,3 C 93 % 1009,4 hPa 0,0 l/m 0 min 0 min 0 W/m 2,1 km/h (1 Bft)
01.05.2015 05:32 3,0 C 3,3 C 93 % 1009,4 hPa 0,0 l/m 0 min 0 min 0 W/m 2,1 km/h (1 Bft)
01.05.2015 05:34 3,0 C 3,3 C 93 % 1009,4 hPa 0,0 l/m 0 min 0 min 0 W/m 2,1 km/h (1 Bft)
01.05.2015 05:36 3,0 C 3,3 C 93 % 1009,4 hPa 0,0 l/m 0 min 0 min 0 W/m 2,1 km/h (1 Bft)
01.05.2015 05:38 2,9 C 3,3 C 93 % 1009,3 hPa 0,0 l/m 0 min 0 min 0 W/m 2,1 km/h (1 Bft)
01.05.2015 05:40 2,9 C 2,8 C 93 % 1009,4 hPa 0,0 l/m 0 min 0 min 0 W/m 2,1 km/h (1 Bft)
01.05.2015 05:42 2,9 C 2,8 C 93 % 1009,3 hPa 0,0 l/m 0 min 0 min 0 W/m 4,2 km/h (1 Bft)
01.05.2015 05:44 2,9 C 2,8 C 93 % 1009,3 hPa 0,0 l/m 0 min 0 min 0 W/m 2,1 km/h (1 Bft)
01.05.2015 05:46 2,9 C 2,8 C 93 % 1009,2 hPa 0,0 l/m 0 min 0 min 0 W/m 2,1 km/h (1 Bft)
01.05.2015 05:48 2,9 C 2,8 C 93 % 1009,2 hPa 0,0 l/m 0 min 0 min 0 W/m 2,1 km/h (1 Bft)
01.05.2015 05:50 2,8 C 2,8 C 93 % 1009,3 hPa 0,0 l/m 0 min 0 min 0 W/m 0,0 km/h (0 Bft)
01.05.2015 05:52 2,8 C 2,8 C 93 % 1009,3 hPa 0,0 l/m 0 min 0 min 0 W/m 2,1 km/h (1 Bft)
01.05.2015 05:54 2,8 C 2,8 C 93 % 1009,3 hPa 0,0 l/m 0 min 0 min 3 W/m 2,1 km/h (1 Bft)
01.05.2015 05:56 2,8 C 2,8 C 93 % 1009,3 hPa 0,0 l/m 0 min 0 min 5 W/m 2,1 km/h (1 Bft)
01.05.2015 05:58 2,8 C 2,8 C 93 % 1009,3 hPa 0,0 l/m 0 min 0 min 5 W/m 0,0 km/h (0 Bft)
01.05.2015 06:00 2,7 C 2,8 C 93 % 1009,3 hPa 0,0 l/m 0 min 0 min 7 W/m 0,0 km/h (0 Bft)
01.05.2015 06:02 2,7 C 2,8 C 93 % 1009,4 hPa 0,0 l/m 0 min 0 min 7 W/m 2,1 km/h (1 Bft)
01.05.2015 06:06 2,7 C 2,8 C 93 % 1009,5 hPa 0,0 l/m 0 min 0 min 8 W/m 2,1 km/h (1 Bft)
01.05.2015 06:08 2,7 C 2,8 C 93 % 1009,5 hPa 0,0 l/m 0 min 0 min 10 W/m 2,1 km/h (1 Bft)
01.05.2015 06:10 2,7 C 2,8 C 93 % 1009,4 hPa 0,0 l/m 0 min 0 min 11 W/m 2,1 km/h (1 Bft)
01.05.2015 06:12 2,6 C 2,8 C 93 % 1009,4 hPa 0,0 l/m 0 min 0 min 12 W/m 2,1 km/h (1 Bft)
01.05.2015 06:14 2,6 C 2,8 C 93 % 1009,4 hPa 0,0 l/m 0 min 0 min 14 W/m 2,1 km/h (1 Bft)
01.05.2015 06:16 2,6 C 2,8 C 93 % 1009,4 hPa 0,0 l/m 0 min 0 min 16 W/m 2,1 km/h (1 Bft)
01.05.2015 06:18 2,6 C 2,8 C 93 % 1009,5 hPa 0,0 l/m 0 min 0 min 17 W/m 4,2 km/h (1 Bft)
01.05.2015 06:20 2,6 C 2,8 C 93 % 1009,4 hPa 0,0 l/m 2 min 0 min 19 W/m 4,2 km/h (1 Bft)
01.05.2015 06:22 2,6 C 2,8 C 93 % 1009,4 hPa 0,0 l/m 2 min 0 min 22 W/m 4,2 km/h (1 Bft)
01.05.2015 06:24 2,5 C 2,8 C 93 % 1009,4 hPa 0,0 l/m 2 min 0 min 25 W/m 4,2 km/h (1 Bft)
01.05.2015 06:26 2,5 C 2,8 C 93 % 1009,4 hPa 0,0 l/m 2 min 0 min 27 W/m 4,2 km/h (1 Bft)
01.05.2015 06:28 2,5 C 3,3 C 93 % 1009,5 hPa 0,0 l/m 2 min 0 min 31 W/m 2,1 km/h (1 Bft)
01.05.2015 06:30 2,5 C 3,3 C 93 % 1009,4 hPa 0,0 l/m 2 min 0 min 33 W/m 2,1 km/h (1 Bft)
01.05.2015 06:32 2,5 C 3,3 C 93 % 1009,5 hPa 0,0 l/m 2 min 0 min 37 W/m 2,1 km/h (1 Bft)
01.05.2015 06:34 2,5 C 3,3 C 93 % 1009,5 hPa 0,0 l/m 2 min 0 min 41 W/m 2,1 km/h (1 Bft)
01.05.2015 06:36 2,5 C 3,3 C 93 % 1009,5 hPa 0,0 l/m 2 min 0 min 43 W/m 2,1 km/h (1 Bft)
01.05.2015 06:38 2,5 C 3,3 C 93 % 1009,5 hPa 0,0 l/m 2 min 0 min 46 W/m 2,1 km/h (1 Bft)
01.05.2015 06:40 2,5 C 3,3 C 93 % 1009,4 hPa 0,0 l/m 2 min 0 min 49 W/m 2,1 km/h (1 Bft)
01.05.2015 06:42 2,5 C 3,3 C 93 % 1009,4 hPa 0,0 l/m 2 min 0 min 47 W/m 2,1 km/h (1 Bft)
01.05.2015 06:44 2,5 C 3,3 C 93 % 1009,4 hPa 0,0 l/m 2 min 0 min 49 W/m 2,1 km/h (1 Bft)
01.05.2015 06:46 2,5 C 3,3 C 93 % 1009,4 hPa 0,0 l/m 2 min 0 min 55 W/m 2,1 km/h (1 Bft)
01.05.2015 06:48 2,5 C 3,3 C 93 % 1009,4 hPa 0,0 l/m 2 min 0 min 59 W/m 2,1 km/h (1 Bft)
01.05.2015 06:50 2,5 C 3,9 C 93 % 1009,5 hPa 0,0 l/m 2 min 0 min 65 W/m 2,1 km/h (1 Bft)
01.05.2015 06:52 2,6 C 3,9 C 93 % 1009,5 hPa 0,0 l/m 2 min 0 min 70 W/m 2,1 km/h (1 Bft)
01.05.2015 06:54 2,6 C 3,9 C 94 % 1009,4 hPa 0,0 l/m 2 min 0 min 62 W/m 2,1 km/h (1 Bft)
01.05.2015 06:56 2,6 C 3,9 C 94 % 1009,4 hPa 0,0 l/m 2 min 0 min 56 W/m 4,2 km/h (1 Bft)
01.05.2015 06:58 2,6 C 3,9 C 94 % 1009,5 hPa 0,0 l/m 2 min 0 min 58 W/m 2,1 km/h (1 Bft)
01.05.2015 07:00 2,6 C 3,9 C 94 % 1009,4 hPa 0,0 l/m 2 min 0 min 59 W/m 2,1 km/h (1 Bft)
01.05.2015 07:02 2,7 C 3,9 C 94 % 1009,4 hPa 0,0 l/m 0 min 0 min 59 W/m 2,1 km/h (1 Bft)
01.05.2015 07:04 2,7 C 3,9 C 94 % 1009,4 hPa 0,0 l/m 0 min 0 min 57 W/m 2,1 km/h (1 Bft)
01.05.2015 07:06 2,7 C 3,9 C 94 % 1009,4 hPa 0,0 l/m 0 min 0 min 59 W/m 2,1 km/h (1 Bft)
01.05.2015 07:08 2,8 C 3,9 C 94 % 1009,3 hPa 0,0 l/m 0 min 0 min 61 W/m 2,1 km/h (1 Bft)
01.05.2015 07:10 2,8 C 3,9 C 94 % 1009,3 hPa 0,0 l/m 0 min 0 min 65 W/m 2,1 km/h (1 Bft)
01.05.2015 07:12 2,8 C 3,9 C 94 % 1009,3 hPa 0,0 l/m 0 min 0 min 69 W/m 4,2 km/h (1 Bft)
01.05.2015 07:14 2,9 C 4,4 C 94 % 1009,3 hPa 0,0 l/m 0 min 0 min 73 W/m 4,2 km/h (1 Bft)
01.05.2015 07:16 2,9 C 4,4 C 94 % 1009,3 hPa 0,0 l/m 0 min 0 min 77 W/m 2,1 km/h (1 Bft)
01.05.2015 07:18 2,9 C 4,4 C 94 % 1009,3 hPa 0,0 l/m 0 min 0 min 80 W/m 2,1 km/h (1 Bft)
01.05.2015 07:20 3,0 C 4,4 C 94 % 1009,3 hPa 0,0 l/m 0 min 0 min 83 W/m 2,1 km/h (1 Bft)
01.05.2015 07:22 3,1 C 4,4 C 94 % 1009,3 hPa 0,0 l/m 0 min 0 min 84 W/m 4,2 km/h (1 Bft)
01.05.2015 07:24 3,1 C 4,4 C 94 % 1009,2 hPa 0,0 l/m 0 min 0 min 87 W/m 2,1 km/h (1 Bft)
01.05.2015 07:26 3,2 C 4,4 C 95 % 1009,3 hPa 0,0 l/m 0 min 0 min 90 W/m 2,1 km/h (1 Bft)
01.05.2015 07:28 3,3 C 4,4 C 95 % 1009,2 hPa 0,0 l/m 2 min 0 min 98 W/m 2,1 km/h (1 Bft)
01.05.2015 07:30 3,3 C 4,4 C 95 % 1009,2 hPa 0,0 l/m 2 min 0 min 101 W/m 2,1 km/h (1 Bft)
01.05.2015 07:32 3,4 C 4,4 C 95 % 1009,3 hPa 0,0 l/m 2 min 0 min 104 W/m 2,1 km/h (1 Bft)
01.05.2015 07:34 3,4 C 5,0 C 95 % 1009,3 hPa 0,0 l/m 2 min 0 min 106 W/m 2,1 km/h (1 Bft)
01.05.2015 07:36 3,5 C 5,0 C 95 % 1009,3 hPa 0,0 l/m 2 min 0 min 111 W/m 2,1 km/h (1 Bft)
01.05.2015 07:38 3,5 C 5,0 C 95 % 1009,3 hPa 0,0 l/m 2 min 0 min 119 W/m 2,1 km/h (1 Bft)
01.05.2015 07:40 3,6 C 5,0 C 95 % 1009,3 hPa 0,0 l/m 2 min 0 min 122 W/m 2,1 km/h (1 Bft)
01.05.2015 07:42 3,7 C 5,0 C 95 % 1009,3 hPa 0,0 l/m 2 min 0 min 127 W/m 2,1 km/h (1 Bft)
01.05.2015 07:44 3,7 C 5,0 C 95 % 1009,3 hPa 0,0 l/m 2 min 0 min 125 W/m 2,1 km/h (1 Bft)
01.05.2015 07:46 3,8 C 5,0 C 95 % 1009,3 hPa 0,0 l/m 2 min 0 min 122 W/m 2,1 km/h (1 Bft)
01.05.2015 07:48 3,8 C 5,0 C 95 % 1009,3 hPa 0,0 l/m 2 min 0 min 124 W/m 2,1 km/h (1 Bft)
01.05.2015 07:50 3,9 C 5,0 C 95 % 1009,2 hPa 0,0 l/m 2 min 0 min 130 W/m 2,1 km/h (1 Bft)
01.05.2015 07:52 3,9 C 5,0 C 95 % 1009,2 hPa 0,0 l/m 2 min 0 min 129 W/m 2,1 km/h (1 Bft)
01.05.2015 07:54 4,0 C 5,0 C 95 % 1009,3 hPa 0,0 l/m 0 min 0 min 125 W/m 2,1 km/h (1 Bft)
01.05.2015 07:56 4,1 C 5,0 C 95 % 1009,3 hPa 0,0 l/m 0 min 0 min 125 W/m 2,1 km/h (1 Bft)
01.05.2015 07:58 4,2 C 5,6 C 95 % 1009,2 hPa 0,0 l/m 0 min 0 min 127 W/m 2,1 km/h (1 Bft)
01.05.2015 08:00 4,2 C 5,6 C 95 % 1009,2 hPa 0,0 l/m 0 min 0 min 130 W/m 2,1 km/h (1 Bft)
01.05.2015 08:02 4,3 C 5,6 C 95 % 1009,2 hPa 0,0 l/m 0 min 0 min 133 W/m 2,1 km/h (1 Bft)
01.05.2015 08:04 4,3 C 5,6 C 95 % 1009,3 hPa 0,0 l/m 0 min 0 min 132 W/m 2,1 km/h (1 Bft)
01.05.2015 08:06 4,4 C 5,6 C 95 % 1009,3 hPa 0,0 l/m 0 min 0 min 134 W/m 0,0 km/h (0 Bft)
01.05.2015 08:08 4,4 C 5,6 C 95 % 1009,3 hPa 0,0 l/m 0 min 0 min 141 W/m 0,0 km/h (0 Bft)
01.05.2015 08:10 4,5 C 5,6 C 96 % 1009,3 hPa 0,0 l/m 0 min 0 min 147 W/m 2,1 km/h (1 Bft)
01.05.2015 08:12 4,6 C 5,6 C 96 % 1009,4 hPa 0,0 l/m 2 min 0 min 153 W/m 2,1 km/h (1 Bft)
01.05.2015 08:14 4,6 C 5,6 C 96 % 1009,3 hPa 0,0 l/m 2 min 0 min 166 W/m 2,1 km/h (1 Bft)
01.05.2015 08:16 4,7 C 5,6 C 96 % 1009,4 hPa 0,0 l/m 2 min 0 min 179 W/m 2,1 km/h (1 Bft)
01.05.2015 08:18 4,7 C 5,6 C 96 % 1009,4 hPa 0,0 l/m 2 min 0 min 190 W/m 4,2 km/h (1 Bft)
01.05.2015 08:20 4,8 C 5,6 C 96 % 1009,4 hPa 0,0 l/m 2 min 0 min 203 W/m 4,2 km/h (1 Bft)
01.05.2015 08:22 4,9 C 5,6 C 96 % 1009,4 hPa 0,0 l/m 2 min 0 min 200 W/m 2,1 km/h (1 Bft)
01.05.2015 08:24 4,9 C 5,6 C 96 % 1009,4 hPa 0,0 l/m 2 min 0 min 187 W/m 2,1 km/h (1 Bft)
01.05.2015 08:26 5,0 C 5,6 C 96 % 1009,3 hPa 0,0 l/m 2 min 0 min 218 W/m 2,1 km/h (1 Bft)
01.05.2015 08:28 5,1 C 5,6 C 96 % 1009,3 hPa 0,0 l/m 2 min 0 min 231 W/m 2,1 km/h (1 Bft)
01.05.2015 08:30 5,2 C 5,6 C 96 % 1009,3 hPa 0,0 l/m 2 min 0 min 230 W/m 4,2 km/h (1 Bft)
01.05.2015 08:32 5,2 C 5,6 C 96 % 1009,4 hPa 0,0 l/m 2 min 0 min 269 W/m 4,2 km/h (1 Bft)
01.05.2015 08:34 5,3 C 5,6 C 96 % 1009,4 hPa 0,0 l/m 2 min 0 min 253 W/m 4,2 km/h (1 Bft)
01.05.2015 08:36 5,3 C 5,6 C 96 % 1009,4 hPa 0,0 l/m 2 min 0 min 224 W/m 4,2 km/h (1 Bft)
01.05.2015 08:38 5,4 C 5,6 C 96 % 1009,4 hPa 0,0 l/m 2 min 0 min 227 W/m 6,3 km/h (2 Bft)
01.05.2015 08:40 5,5 C 5,6 C 96 % 1009,3 hPa 0,0 l/m 2 min 0 min 229 W/m 6,3 km/h (2 Bft)
01.05.2015 08:42 5,6 C 6,1 C 96 % 1009,3 hPa 0,0 l/m 2 min 0 min 255 W/m 4,2 km/h (1 Bft)
01.05.2015 08:44 5,6 C 6,1 C 96 % 1009,3 hPa 0,0 l/m 2 min 0 min 311 W/m 10,5 km/h (2 Bft)
01.05.2015 08:46 5,7 C 6,1 C 96 % 1009,2 hPa 0,0 l/m 2 min 0 min 327 W/m 10,5 km/h (2 Bft)
01.05.2015 08:48 5,7 C 6,1 C 96 % 1009,4 hPa 0,0 l/m 2 min 0 min 335 W/m 8,4 km/h (2 Bft)
01.05.2015 08:50 5,8 C 6,1 C 96 % 1009,3 hPa 0,0 l/m 2 min 0 min 316 W/m 10,5 km/h (2 Bft)
01.05.2015 08:52 5,8 C 6,1 C 96 % 1009,3 hPa 0,0 l/m 2 min 0 min 301 W/m 8,4 km/h (2 Bft)
01.05.2015 08:54 5,9 C 6,1 C 96 % 1009,3 hPa 0,0 l/m 2 min 0 min 282 W/m 10,5 km/h (2 Bft)
01.05.2015 08:56 5,9 C 6,1 C 96 % 1009,3 hPa 0,0 l/m 2 min 0 min 280 W/m 10,5 km/h (2 Bft)
01.05.2015 08:58 6,0 C 6,1 C 96 % 1009,3 hPa 0,0 l/m 2 min 0 min 300 W/m 6,3 km/h (2 Bft)
01.05.2015 09:00 6,1 C 6,1 C 96 % 1009,3 hPa 0,0 l/m 2 min 0 min 299 W/m 12,6 km/h (3 Bft)
01.05.2015 09:02 6,1 C 6,1 C 96 % 1009,3 hPa 0,0 l/m 2 min 0 min 293 W/m 14,6 km/h (3 Bft)
01.05.2015 09:04 6,2 C 6,1 C 96 % 1009,3 hPa 0,0 l/m 2 min 0 min 295 W/m 8,4 km/h (2 Bft)
01.05.2015 09:06 6,3 C 6,1 C 96 % 1009,3 hPa 0,0 l/m 2 min 0 min 316 W/m 10,5 km/h (2 Bft)
01.05.2015 09:08 6,4 C 6,1 C 96 % 1009,2 hPa 0,0 l/m 2 min 0 min 316 W/m 6,3 km/h (2 Bft)
01.05.2015 09:10 6,4 C 6,7 C 96 % 1009,3 hPa 0,0 l/m 2 min 0 min 314 W/m 10,5 km/h (2 Bft)
01.05.2015 09:12 6,4 C 6,7 C 96 % 1009,2 hPa 0,0 l/m 2 min 0 min 364 W/m 8,4 km/h (2 Bft)
01.05.2015 09:14 6,5 C 6,7 C 96 % 1009,3 hPa 0,0 l/m 2 min 0 min 370 W/m 10,5 km/h (2 Bft)
01.05.2015 09:16 6,6 C 6,7 C 95 % 1009,2 hPa 0,0 l/m 2 min 0 min 367 W/m 10,5 km/h (2 Bft)
01.05.2015 09:18 6,7 C 6,7 C 96 % 1009,3 hPa 0,0 l/m 2 min 0 min 385 W/m 10,5 km/h (2 Bft)
01.05.2015 09:20 6,7 C 6,7 C 95 % 1009,2 hPa 0,0 l/m 2 min 0 min 365 W/m 14,6 km/h (3 Bft)
01.05.2015 09:22 6,8 C 6,7 C 95 % 1009,2 hPa 0,0 l/m 2 min 0 min 359 W/m 14,6 km/h (3 Bft)
01.05.2015 09:24 6,9 C 6,7 C 95 % 1009,2 hPa 0,0 l/m 2 min 0 min 375 W/m 14,6 km/h (3 Bft)
01.05.2015 09:26 7,0 C 6,7 C 94 % 1009,2 hPa 0,0 l/m 2 min 0 min 382 W/m 14,6 km/h (3 Bft)
01.05.2015 09:28 7,1 C 6,7 C 94 % 1009,2 hPa 0,0 l/m 2 min 0 min 399 W/m 12,6 km/h (3 Bft)
01.05.2015 09:30 7,2 C 7,2 C 93 % 1009,1 hPa 0,0 l/m 2 min 0 min 422 W/m 14,6 km/h (3 Bft)
01.05.2015 09:32 7,3 C 7,2 C 92 % 1009,2 hPa 0,0 l/m 2 min 0 min 413 W/m 16,7 km/h (3 Bft)
01.05.2015 09:34 7,5 C 7,2 C 91 % 1009,2 hPa 0,0 l/m 2 min 0 min 417 W/m 14,6 km/h (3 Bft)
01.05.2015 09:36 7,6 C 7,2 C 90 % 1009,2 hPa 0,0 l/m 2 min 0 min 453 W/m 10,5 km/h (2 Bft)
01.05.2015 09:38 7,7 C 7,2 C 89 % 1009,2 hPa 0,0 l/m 2 min 0 min 460 W/m 16,7 km/h (3 Bft)
01.05.2015 09:40 7,8 C 7,2 C 88 % 1009,2 hPa 0,0 l/m 2 min 0 min 447 W/m 14,6 km/h (3 Bft)
01.05.2015 09:42 7,9 C 7,2 C 87 % 1009,2 hPa 0,0 l/m 2 min 0 min 444 W/m 14,6 km/h (3 Bft)
01.05.2015 09:44 8,1 C 7,8 C 85 % 1009,2 hPa 0,0 l/m 2 min 0 min 436 W/m 14,6 km/h (3 Bft)
01.05.2015 09:46 8,2 C 7,2 C 83 % 1009,2 hPa 0,0 l/m 2 min 0 min 450 W/m 16,7 km/h (3 Bft)
01.05.2015 09:48 8,2 C 7,2 C 82 % 1009,3 hPa 0,0 l/m 2 min 0 min 450 W/m 10,5 km/h (2 Bft)
01.05.2015 09:50 8,2 C 7,8 C 81 % 1009,2 hPa 0,0 l/m 2 min 0 min 436 W/m 10,5 km/h (2 Bft)
01.05.2015 09:52 8,3 C 7,8 C 81 % 1009,2 hPa 0,0 l/m 2 min 0 min 436 W/m 10,5 km/h (2 Bft)
01.05.2015 09:54 8,4 C 7,8 C 81 % 1009,2 hPa 0,0 l/m 2 min 0 min 418 W/m 12,6 km/h (3 Bft)
01.05.2015 09:56 8,5 C 7,8 C 80 % 1009,2 hPa 0,0 l/m 2 min 0 min 398 W/m 12,6 km/h (3 Bft)
01.05.2015 09:58 8,6 C 7,8 C 79 % 1009,2 hPa 0,0 l/m 2 min 0 min 363 W/m 10,5 km/h (2 Bft)
01.05.2015 10:00 8,6 C 7,8 C 78 % 1009,3 hPa 0,0 l/m 2 min 0 min 366 W/m 12,6 km/h (3 Bft)
01.05.2015 10:02 8,7 C 7,8 C 77 % 1009,2 hPa 0,0 l/m 2 min 0 min 378 W/m 12,6 km/h (3 Bft)
01.05.2015 10:04 8,7 C 7,8 C 78 % 1009,2 hPa 0,0 l/m 2 min 0 min 382 W/m 6,3 km/h (2 Bft)
01.05.2015 10:06 8,8 C 7,8 C 78 % 1009,2 hPa 0,0 l/m 2 min 0 min 407 W/m 10,5 km/h (2 Bft)
01.05.2015 10:08 8,9 C 7,8 C 77 % 1009,2 hPa 0,0 l/m 2 min 0 min 419 W/m 14,6 km/h (3 Bft)
01.05.2015 10:10 8,9 C 8,3 C 77 % 1009,2 hPa 0,0 l/m 2 min 0 min 430 W/m 18,8 km/h (3 Bft)
01.05.2015 10:12 9,0 C 8,3 C 77 % 1009,2 hPa 0,0 l/m 2 min 0 min 436 W/m 14,6 km/h (3 Bft)
01.05.2015 10:14 9,0 C 8,3 C 76 % 1009,2 hPa 0,0 l/m 2 min 0 min 428 W/m 8,4 km/h (2 Bft)
01.05.2015 10:16 9,1 C 8,3 C 76 % 1009,1 hPa 0,0 l/m 2 min 0 min 419 W/m 6,3 km/h (2 Bft)
01.05.2015 10:18 9,2 C 8,3 C 76 % 1009,1 hPa 0,0 l/m 2 min 0 min 423 W/m 6,3 km/h (2 Bft)
01.05.2015 10:20 9,3 C 8,9 C 76 % 1009,1 hPa 0,0 l/m 2 min 0 min 431 W/m 8,4 km/h (2 Bft)
01.05.2015 10:22 9,3 C 8,9 C 76 % 1009,1 hPa 0,0 l/m 2 min 0 min 445 W/m 8,4 km/h (2 Bft)
01.05.2015 10:24 9,4 C 8,9 C 76 % 1009,1 hPa 0,0 l/m 2 min 0 min 474 W/m 4,2 km/h (1 Bft)
01.05.2015 10:26 9,4 C 8,9 C 75 % 1009,2 hPa 0,0 l/m 2 min 0 min 492 W/m 12,6 km/h (3 Bft)
01.05.2015 10:28 9,6 C 8,9 C 76 % 1009,2 hPa 0,0 l/m 2 min 0 min 511 W/m 10,5 km/h (2 Bft)
01.05.2015 10:30 9,7 C 8,9 C 75 % 1009,2 hPa 0,0 l/m 2 min 0 min 523 W/m 8,4 km/h (2 Bft)
01.05.2015 10:32 9,7 C 8,9 C 74 % 1009,2 hPa 0,0 l/m 2 min 0 min 535 W/m 10,5 km/h (2 Bft)
01.05.2015 10:34 9,8 C 8,9 C 73 % 1009,2 hPa 0,0 l/m 2 min 0 min 518 W/m 8,4 km/h (2 Bft)
01.05.2015 10:36 9,8 C 8,9 C 72 % 1009,1 hPa 0,0 l/m 2 min 0 min 509 W/m 12,6 km/h (3 Bft)
01.05.2015 10:38 9,9 C 8,9 C 73 % 1009,1 hPa 0,0 l/m 2 min 0 min 538 W/m 12,6 km/h (3 Bft)
01.05.2015 10:40 9,9 C 8,9 C 72 % 1009,1 hPa 0,0 l/m 2 min 0 min 560 W/m 10,5 km/h (2 Bft)
01.05.2015 10:42 10,0 C 8,9 C 71 % 1009,2 hPa 0,0 l/m 2 min 0 min 580 W/m 10,5 km/h (2 Bft)
01.05.2015 10:44 10,0 C 8,9 C 71 % 1009,1 hPa 0,0 l/m 2 min 0 min 590 W/m 4,2 km/h (1 Bft)
01.05.2015 10:46 10,1 C 9,4 C 73 % 1009,1 hPa 0,0 l/m 2 min 0 min 598 W/m 8,4 km/h (2 Bft)
01.05.2015 10:48 10,3 C 9,4 C 74 % 1009,1 hPa 0,0 l/m 2 min 0 min 618 W/m 8,4 km/h (2 Bft)
01.05.2015 10:50 10,4 C 9,4 C 73 % 1009,1 hPa 0,0 l/m 2 min 0 min 550 W/m 8,4 km/h (2 Bft)
01.05.2015 10:52 10,5 C 9,4 C 73 % 1009,0 hPa 0,0 l/m 2 min 0 min 589 W/m 14,6 km/h (3 Bft)
01.05.2015 10:54 10,6 C 9,4 C 72 % 1009,0 hPa 0,0 l/m 2 min 0 min 615 W/m 10,5 km/h (2 Bft)
01.05.2015 10:56 10,7 C 9,4 C 71 % 1009,0 hPa 0,0 l/m 2 min 0 min 616 W/m 8,4 km/h (2 Bft)
01.05.2015 10:58 10,8 C 9,4 C 70 % 1008,9 hPa 0,0 l/m 2 min 0 min 626 W/m 6,3 km/h (2 Bft)
01.05.2015 11:00 10,8 C 9,4 C 70 % 1008,9 hPa 0,0 l/m 2 min 0 min 689 W/m 4,2 km/h (1 Bft)
01.05.2015 11:02 10,9 C 9,4 C 70 % 1008,9 hPa 0,0 l/m 2 min 0 min 635 W/m 14,6 km/h (3 Bft)
01.05.2015 11:04 11,0 C 9,4 C 69 % 1008,9 hPa 0,0 l/m 2 min 0 min 527 W/m 10,5 km/h (2 Bft)
01.05.2015 11:06 11,1 C 9,4 C 69 % 1008,9 hPa 0,0 l/m 2 min 0 min 563 W/m 12,6 km/h (3 Bft)
01.05.2015 11:08 11,1 C 9,4 C 69 % 1008,8 hPa 0,0 l/m 2 min 0 min 606 W/m 8,4 km/h (2 Bft)
01.05.2015 11:10 11,1 C 9,4 C 68 % 1008,8 hPa 0,0 l/m 2 min 0 min 573 W/m 4,2 km/h (1 Bft)
01.05.2015 11:12 11,2 C 9,4 C 68 % 1008,8 hPa 0,0 l/m 2 min 0 min 439 W/m 16,7 km/h (3 Bft)
01.05.2015 11:14 11,2 C 9,4 C 68 % 1008,8 hPa 0,0 l/m 2 min 0 min 598 W/m 8,4 km/h (2 Bft)
01.05.2015 11:16 11,2 C 10,0 C 67 % 1008,8 hPa 0,0 l/m 2 min 0 min 649 W/m 6,3 km/h (2 Bft)
01.05.2015 11:18 11,3 C 10,0 C 67 % 1008,8 hPa 0,0 l/m 2 min 0 min 621 W/m 6,3 km/h (2 Bft)
01.05.2015 11:20 11,4 C 10,6 C 68 % 1008,9 hPa 0,0 l/m 2 min 0 min 682 W/m 8,4 km/h (2 Bft)
01.05.2015 11:22 11,5 C 10,6 C 66 % 1008,9 hPa 0,0 l/m 2 min 0 min 683 W/m 6,3 km/h (2 Bft)
01.05.2015 11:24 11,6 C 10,6 C 65 % 1008,9 hPa 0,0 l/m 2 min 0 min 635 W/m 12,6 km/h (3 Bft)
01.05.2015 11:26 11,7 C 10,0 C 64 % 1008,9 hPa 0,0 l/m 2 min 0 min 634 W/m 10,5 km/h (2 Bft)
01.05.2015 11:28 11,7 C 10,0 C 65 % 1008,9 hPa 0,0 l/m 2 min 0 min 688 W/m 6,3 km/h (2 Bft)
01.05.2015 11:30 11,8 C 10,0 C 64 % 1008,9 hPa 0,0 l/m 2 min 0 min 742 W/m 8,4 km/h (2 Bft)
01.05.2015 11:32 11,9 C 10,0 C 64 % 1008,9 hPa 0,0 l/m 2 min 0 min 736 W/m 6,3 km/h (2 Bft)
01.05.2015 11:34 11,9 C 10,0 C 65 % 1008,9 hPa 0,0 l/m 2 min 0 min 710 W/m 8,4 km/h (2 Bft)
01.05.2015 11:36 12,0 C 10,0 C 63 % 1008,8 hPa 0,0 l/m 2 min 0 min 620 W/m 10,5 km/h (2 Bft)
01.05.2015 11:38 12,1 C 10,0 C 63 % 1008,9 hPa 0,0 l/m 2 min 0 min 625 W/m 8,4 km/h (2 Bft)
01.05.2015 11:40 12,2 C 10,0 C 63 % 1008,9 hPa 0,0 l/m 2 min 0 min 670 W/m 8,4 km/h (2 Bft)
01.05.2015 11:42 12,2 C 10,6 C 63 % 1008,8 hPa 0,0 l/m 2 min 0 min 705 W/m 8,4 km/h (2 Bft)
01.05.2015 11:44 12,3 C 10,6 C 62 % 1008,7 hPa 0,0 l/m 2 min 0 min 801 W/m 4,2 km/h (1 Bft)
01.05.2015 11:46 12,3 C 10,6 C 62 % 1008,8 hPa 0,0 l/m 2 min 0 min 603 W/m 4,2 km/h (1 Bft)
01.05.2015 11:48 12,5 C 10,6 C 64 % 1008,8 hPa 0,0 l/m 2 min 0 min 861 W/m 6,3 km/h (2 Bft)
01.05.2015 11:50 12,6 C 10,6 C 61 % 1008,8 hPa 0,0 l/m 2 min 0 min 780 W/m 8,4 km/h (2 Bft)
01.05.2015 11:52 12,7 C 10,6 C 62 % 1008,7 hPa 0,0 l/m 2 min 0 min 798 W/m 8,4 km/h (2 Bft)
01.05.2015 11:54 12,7 C 10,6 C 60 % 1008,7 hPa 0,0 l/m 2 min 0 min 405 W/m 6,3 km/h (2 Bft)
01.05.2015 11:56 12,7 C 10,0 C 60 % 1008,7 hPa 0,0 l/m 0 min 0 min 362 W/m 8,4 km/h (2 Bft)
01.05.2015 11:58 12,6 C 10,0 C 59 % 1008,7 hPa 0,0 l/m 0 min 0 min 358 W/m 10,5 km/h (2 Bft)
01.05.2015 12:00 12,6 C 10,0 C 59 % 1008,7 hPa 0,0 l/m 0 min 0 min 360 W/m 6,3 km/h (2 Bft)
01.05.2015 12:02 12,4 C 10,0 C 59 % 1008,7 hPa 0,0 l/m 0 min 0 min 326 W/m 4,2 km/h (1 Bft)
01.05.2015 12:06 12,4 C 10,0 C 60 % 1008,8 hPa 0,0 l/m 0 min 0 min 309 W/m 8,4 km/h (2 Bft)
01.05.2015 12:08 12,3 C 10,0 C 60 % 1008,7 hPa 0,0 l/m 0 min 0 min 341 W/m 8,4 km/h (2 Bft)
01.05.2015 12:10 12,3 C 10,0 C 60 % 1008,7 hPa 0,0 l/m 0 min 0 min 354 W/m 8,4 km/h (2 Bft)
01.05.2015 12:12 12,2 C 10,0 C 62 % 1008,7 hPa 0,0 l/m 0 min 0 min 351 W/m 8,4 km/h (2 Bft)
01.05.2015 12:14 12,2 C 10,0 C 62 % 1008,7 hPa 0,0 l/m 0 min 0 min 367 W/m 12,6 km/h (3 Bft)
01.05.2015 12:16 12,2 C 10,6 C 61 % 1008,7 hPa 0,0 l/m 2 min 0 min 387 W/m 10,5 km/h (2 Bft)
01.05.2015 12:18 12,1 C 10,0 C 61 % 1008,7 hPa 0,0 l/m 0 min 0 min 354 W/m 10,5 km/h (2 Bft)
01.05.2015 12:20 12,0 C 10,0 C 61 % 1008,8 hPa 0,0 l/m 0 min 0 min 305 W/m 8,4 km/h (2 Bft)
01.05.2015 12:22 11,9 C 10,0 C 61 % 1008,8 hPa 0,0 l/m 0 min 0 min 318 W/m 6,3 km/h (2 Bft)
01.05.2015 12:24 11,9 C 10,0 C 62 % 1008,7 hPa 0,0 l/m 0 min 0 min 341 W/m 4,2 km/h (1 Bft)
01.05.2015 12:26 11,9 C 10,6 C 62 % 1008,8 hPa 0,0 l/m 0 min 0 min 367 W/m 4,2 km/h (1 Bft)
01.05.2015 12:28 11,9 C 10,6 C 63 % 1008,7 hPa 0,0 l/m 2 min 0 min 415 W/m 6,3 km/h (2 Bft)
01.05.2015 12:30 11,9 C 10,6 C 63 % 1008,7 hPa 0,0 l/m 2 min 0 min 428 W/m 10,5 km/h (2 Bft)
01.05.2015 12:32 11,9 C 10,6 C 61 % 1008,7 hPa 0,0 l/m 2 min 0 min 483 W/m 8,4 km/h (2 Bft)
01.05.2015 12:34 11,9 C 10,6 C 61 % 1008,7 hPa 0,0 l/m 2 min 0 min 508 W/m 4,2 km/h (1 Bft)
01.05.2015 12:36 11,9 C 10,6 C 61 % 1008,6 hPa 0,0 l/m 2 min 0 min 494 W/m 4,2 km/h (1 Bft)
01.05.2015 12:38 11,9 C 10,6 C 61 % 1008,7 hPa 0,0 l/m 2 min 0 min 505 W/m 4,2 km/h (1 Bft)
01.05.2015 12:40 11,9 C 10,6 C 61 % 1008,7 hPa 0,0 l/m 2 min 0 min 536 W/m 4,2 km/h (1 Bft)
01.05.2015 12:42 11,9 C 11,1 C 62 % 1008,7 hPa 0,0 l/m 2 min 0 min 491 W/m 4,2 km/h (1 Bft)
01.05.2015 12:44 12,1 C 11,1 C 63 % 1008,7 hPa 0,0 l/m 2 min 0 min 499 W/m 6,3 km/h (2 Bft)
01.05.2015 12:46 12,1 C 11,1 C 62 % 1008,8 hPa 0,0 l/m 2 min 0 min 611 W/m 6,3 km/h (2 Bft)
01.05.2015 12:48 12,2 C 11,1 C 63 % 1008,7 hPa 0,0 l/m 2 min 0 min 606 W/m 10,5 km/h (2 Bft)
01.05.2015 12:50 12,3 C 11,1 C 63 % 1008,7 hPa 0,0 l/m 2 min 0 min 653 W/m 8,4 km/h (2 Bft)
01.05.2015 12:52 12,4 C 11,7 C 62 % 1008,7 hPa 0,0 l/m 2 min 0 min 649 W/m 8,4 km/h (2 Bft)
01.05.2015 12:54 12,6 C 12,2 C 63 % 1008,7 hPa 0,0 l/m 2 min 0 min 841 W/m 8,4 km/h (2 Bft)
01.05.2015 12:56 12,7 C 12,2 C 62 % 1008,7 hPa 0,0 l/m 2 min 0 min 822 W/m 8,4 km/h (2 Bft)
01.05.2015 12:58 12,8 C 12,2 C 60 % 1008,7 hPa 0,0 l/m 2 min 0 min 590 W/m 6,3 km/h (2 Bft)
01.05.2015 13:00 12,9 C 12,2 C 61 % 1008,6 hPa 0,0 l/m 2 min 0 min 664 W/m 10,5 km/h (2 Bft)
01.05.2015 13:02 13,1 C 12,2 C 60 % 1008,6 hPa 0,0 l/m 2 min 0 min 791 W/m 10,5 km/h (2 Bft)
01.05.2015 13:04 13,2 C 12,2 C 61 % 1008,6 hPa 0,0 l/m 2 min 0 min 667 W/m 8,4 km/h (2 Bft)
01.05.2015 13:06 13,3 C 12,2 C 60 % 1008,5 hPa 0,0 l/m 2 min 0 min 502 W/m 6,3 km/h (2 Bft)
01.05.2015 13:08 13,3 C 12,2 C 60 % 1008,5 hPa 0,0 l/m 2 min 0 min 487 W/m 14,6 km/h (3 Bft)
01.05.2015 13:10 13,4 C 12,2 C 58 % 1008,4 hPa 0,0 l/m 2 min 0 min 542 W/m 6,3 km/h (2 Bft)
01.05.2015 13:12 13,4 C 12,2 C 58 % 1008,3 hPa 0,0 l/m 2 min 0 min 564 W/m 14,6 km/h (3 Bft)
01.05.2015 13:14 13,5 C 12,2 C 57 % 1008,2 hPa 0,0 l/m 2 min 0 min 564 W/m 8,4 km/h (2 Bft)
01.05.2015 13:16 13,5 C 12,2 C 58 % 1008,3 hPa 0,0 l/m 2 min 0 min 481 W/m 8,4 km/h (2 Bft)
01.05.2015 13:18 13,6 C 12,2 C 56 % 1008,2 hPa 0,0 l/m 2 min 0 min 658 W/m 4,2 km/h (1 Bft)
01.05.2015 13:20 13,6 C 12,2 C 56 % 1008,2 hPa 0,0 l/m 2 min 0 min 820 W/m 14,6 km/h (3 Bft)
01.05.2015 13:22 13,7 C 12,2 C 57 % 1008,2 hPa 0,0 l/m 2 min 0 min 833 W/m 10,5 km/h (2 Bft)
01.05.2015 13:24 13,8 C 12,8 C 57 % 1008,2 hPa 0,0 l/m 2 min 0 min 904 W/m 6,3 km/h (2 Bft)
01.05.2015 13:26 13,9 C 12,8 C 55 % 1008,1 hPa 0,0 l/m 2 min 0 min 888 W/m 10,5 km/h (2 Bft)
01.05.2015 13:28 14,0 C 12,8 C 56 % 1008,2 hPa 0,0 l/m 2 min 0 min 888 W/m 6,3 km/h (2 Bft)
01.05.2015 13:30 14,1 C 12,8 C 56 % 1008,2 hPa 0,0 l/m 2 min 0 min 730 W/m 6,3 km/h (2 Bft)
01.05.2015 13:32 14,1 C 12,8 C 55 % 1008,2 hPa 0,0 l/m 2 min 0 min 601 W/m 6,3 km/h (2 Bft)
01.05.2015 13:34 14,2 C 13,3 C 59 % 1008,2 hPa 0,0 l/m 2 min 0 min 646 W/m 4,2 km/h (1 Bft)
01.05.2015 13:36 14,3 C 13,3 C 60 % 1008,2 hPa 0,0 l/m 2 min 0 min 836 W/m 6,3 km/h (2 Bft)
01.05.2015 13:38 14,4 C 13,3 C 58 % 1008,2 hPa 0,0 l/m 2 min 0 min 1024 W/m 8,4 km/h (2 Bft)
01.05.2015 13:40 14,6 C 13,3 C 55 % 1008,2 hPa 0,0 l/m 2 min 0 min 1062 W/m 10,5 km/h (2 Bft)
01.05.2015 13:42 14,7 C 13,3 C 56 % 1008,2 hPa 0,0 l/m 2 min 0 min 985 W/m 14,6 km/h (3 Bft)
01.05.2015 13:44 14,7 C 12,8 C 55 % 1008,2 hPa 0,0 l/m 2 min 0 min 448 W/m 18,8 km/h (3 Bft)
01.05.2015 13:46 14,7 C 12,8 C 53 % 1008,2 hPa 0,0 l/m 2 min 0 min 673 W/m 14,6 km/h (3 Bft)
01.05.2015 13:48 14,8 C 12,8 C 53 % 1008,2 hPa 0,0 l/m 2 min 0 min 903 W/m 8,4 km/h (2 Bft)
01.05.2015 13:50 14,7 C 12,2 C 53 % 1008,2 hPa 0,0 l/m 0 min 0 min 312 W/m 10,5 km/h (2 Bft)
01.05.2015 13:52 14,7 C 12,2 C 53 % 1008,2 hPa 0,0 l/m 0 min 0 min 319 W/m 14,6 km/h (3 Bft)
01.05.2015 13:54 14,6 C 12,2 C 53 % 1008,2 hPa 0,0 l/m 0 min 0 min 320 W/m 10,5 km/h (2 Bft)
01.05.2015 13:56 14,6 C 12,2 C 51 % 1008,2 hPa 0,0 l/m 2 min 0 min 449 W/m 10,5 km/h (2 Bft)
01.05.2015 13:58 14,5 C 11,7 C 50 % 1008,0 hPa 0,0 l/m 2 min 0 min 717 W/m 4,2 km/h (1 Bft)
01.05.2015 14:00 14,5 C 11,7 C 51 % 1007,9 hPa 0,0 l/m 2 min 0 min 765 W/m 6,3 km/h (2 Bft)
01.05.2015 14:02 14,5 C 11,7 C 51 % 1008,0 hPa 0,0 l/m 2 min 0 min 885 W/m 8,4 km/h (2 Bft)
01.05.2015 14:04 14,6 C 12,2 C 52 % 1007,9 hPa 0,0 l/m 2 min 0 min 915 W/m 10,5 km/h (2 Bft)
01.05.2015 14:06 14,6 C 12,2 C 53 % 1007,9 hPa 0,0 l/m 2 min 0 min 957 W/m 10,5 km/h (2 Bft)
01.05.2015 14:08 14,7 C 12,2 C 51 % 1007,9 hPa 0,0 l/m 2 min 0 min 973 W/m 6,3 km/h (2 Bft)
01.05.2015 14:10 14,7 C 12,8 C 53 % 1007,9 hPa 0,0 l/m 2 min 0 min 981 W/m 8,4 km/h (2 Bft)
01.05.2015 14:12 14,8 C 12,8 C 53 % 1007,9 hPa 0,0 l/m 2 min 0 min 967 W/m 8,4 km/h (2 Bft)
01.05.2015 14:14 14,9 C 12,8 C 54 % 1007,9 hPa 0,0 l/m 2 min 0 min 897 W/m 14,6 km/h (3 Bft)
01.05.2015 14:16 15,1 C 13,3 C 53 % 1007,9 hPa 0,0 l/m 2 min 0 min 879 W/m 12,6 km/h (3 Bft)
01.05.2015 14:18 15,2 C 13,3 C 54 % 1007,9 hPa 0,0 l/m 2 min 0 min 810 W/m 14,6 km/h (3 Bft)
01.05.2015 14:20 15,2 C 13,3 C 51 % 1008,0 hPa 0,0 l/m 2 min 0 min 538 W/m 12,6 km/h (3 Bft)
01.05.2015 14:22 15,3 C 13,3 C 51 % 1008,1 hPa 0,0 l/m 2 min 0 min 829 W/m 16,7 km/h (3 Bft)
01.05.2015 14:24 15,3 C 13,3 C 50 % 1008,0 hPa 0,0 l/m 2 min 0 min 1000 W/m 10,5 km/h (2 Bft)
01.05.2015 14:26 15,3 C 13,3 C 49 % 1008,0 hPa 0,0 l/m 2 min 0 min 900 W/m 4,2 km/h (1 Bft)
01.05.2015 14:28 15,4 C 13,9 C 51 % 1007,9 hPa 0,0 l/m 2 min 0 min 965 W/m 14,6 km/h (3 Bft)
01.05.2015 14:30 15,5 C 13,9 C 51 % 1008,0 hPa 0,0 l/m 2 min 0 min 954 W/m 14,6 km/h (3 Bft)
01.05.2015 14:32 15,6 C 13,9 C 51 % 1008,0 hPa 0,0 l/m 2 min 0 min 965 W/m 16,7 km/h (3 Bft)
01.05.2015 14:34 15,7 C 14,4 C 50 % 1008,0 hPa 0,0 l/m 2 min 0 min 927 W/m 10,5 km/h (2 Bft)
01.05.2015 14:36 15,9 C 15,0 C 51 % 1008,0 hPa 0,0 l/m 2 min 0 min 922 W/m 12,6 km/h (3 Bft)
01.05.2015 14:38 16,0 C 15,0 C 50 % 1007,9 hPa 0,0 l/m 2 min 0 min 915 W/m 8,4 km/h (2 Bft)
01.05.2015 14:40 16,1 C 15,6 C 50 % 1008,0 hPa 0,0 l/m 2 min 0 min 909 W/m 8,4 km/h (2 Bft)
01.05.2015 14:42 16,2 C 15,0 C 48 % 1007,9 hPa 0,0 l/m 2 min 0 min 921 W/m 6,3 km/h (2 Bft)
01.05.2015 14:44 16,3 C 15,0 C 48 % 1008,0 hPa 0,0 l/m 2 min 0 min 795 W/m 10,5 km/h (2 Bft)
01.05.2015 14:46 16,3 C 15,0 C 50 % 1008,0 hPa 0,0 l/m 2 min 0 min 693 W/m 8,4 km/h (2 Bft)
01.05.2015 14:48 16,3 C 14,4 C 49 % 1008,0 hPa 0,0 l/m 2 min 0 min 725 W/m 12,6 km/h (3 Bft)
01.05.2015 14:50 16,2 C 13,9 C 49 % 1008,0 hPa 0,0 l/m 2 min 0 min 479 W/m 16,7 km/h (3 Bft)
01.05.2015 14:52 15,9 C 13,3 C 50 % 1008,0 hPa 0,0 l/m 2 min 0 min 720 W/m 14,6 km/h (3 Bft)
01.05.2015 14:54 15,7 C 13,3 C 51 % 1008,0 hPa 0,0 l/m 2 min 0 min 616 W/m 10,5 km/h (2 Bft)
01.05.2015 14:56 15,6 C 13,3 C 51 % 1008,0 hPa 0,0 l/m 0 min 0 min 362 W/m 10,5 km/h (2 Bft)
01.05.2015 14:58 15,4 C 12,8 C 51 % 1008,0 hPa 0,0 l/m 0 min 0 min 297 W/m 12,6 km/h (3 Bft)
01.05.2015 15:00 15,2 C 12,8 C 50 % 1008,0 hPa 0,0 l/m 0 min 0 min 298 W/m 12,6 km/h (3 Bft)
01.05.2015 15:02 15,1 C 12,8 C 51 % 1008,0 hPa 0,0 l/m 0 min 0 min 309 W/m 14,6 km/h (3 Bft)
01.05.2015 15:04 14,9 C 12,2 C 51 % 1008,0 hPa 0,0 l/m 0 min 0 min 318 W/m 14,6 km/h (3 Bft)
01.05.2015 15:06 14,8 C 12,2 C 51 % 1008,0 hPa 0,0 l/m 0 min 0 min 347 W/m 14,6 km/h (3 Bft)
01.05.2015 15:08 14,6 C 12,2 C 51 % 1008,0 hPa 0,0 l/m 2 min 0 min 404 W/m 10,5 km/h (2 Bft)
01.05.2015 15:10 14,4 C 12,2 C 52 % 1008,0 hPa 0,0 l/m 2 min 0 min 558 W/m 8,4 km/h (2 Bft)
01.05.2015 15:12 14,3 C 12,8 C 54 % 1008,0 hPa 0,0 l/m 2 min 0 min 720 W/m 4,2 km/h (1 Bft)
01.05.2015 15:14 14,3 C 12,8 C 55 % 1007,9 hPa 0,0 l/m 2 min 0 min 630 W/m 10,5 km/h (2 Bft)
01.05.2015 15:16 14,3 C 12,8 C 54 % 1007,8 hPa 0,0 l/m 2 min 0 min 557 W/m 12,6 km/h (3 Bft)
01.05.2015 15:18 14,4 C 13,3 C 53 % 1007,9 hPa 0,0 l/m 2 min 0 min 801 W/m 18,8 km/h (3 Bft)
01.05.2015 15:20 14,4 C 13,3 C 53 % 1007,8 hPa 0,0 l/m 2 min 0 min 870 W/m 12,6 km/h (3 Bft)
01.05.2015 15:22 14,5 C 13,3 C 54 % 1007,9 hPa 0,0 l/m 2 min 0 min 778 W/m 14,6 km/h (3 Bft)
01.05.2015 15:24 14,6 C 13,3 C 53 % 1007,8 hPa 0,0 l/m 2 min 0 min 679 W/m 10,5 km/h (2 Bft)
01.05.2015 15:26 14,6 C 13,3 C 54 % 1007,7 hPa 0,0 l/m 2 min 0 min 796 W/m 8,4 km/h (2 Bft)
01.05.2015 15:28 14,7 C 13,3 C 55 % 1007,7 hPa 0,0 l/m 2 min 0 min 792 W/m 8,4 km/h (2 Bft)
01.05.2015 15:30 14,8 C 13,3 C 53 % 1007,6 hPa 0,0 l/m 2 min 0 min 461 W/m 8,4 km/h (2 Bft)
01.05.2015 15:32 14,8 C 13,3 C 53 % 1007,6 hPa 0,0 l/m 2 min 0 min 420 W/m 10,5 km/h (2 Bft)
01.05.2015 15:34 14,8 C 12,8 C 51 % 1007,6 hPa 0,0 l/m 2 min 0 min 676 W/m 10,5 km/h (2 Bft)
01.05.2015 15:36 14,8 C 12,8 C 52 % 1007,5 hPa 0,0 l/m 2 min 0 min 469 W/m 8,4 km/h (2 Bft)
01.05.2015 15:38 14,9 C 13,3 C 52 % 1007,5 hPa 0,0 l/m 2 min 0 min 730 W/m 10,5 km/h (2 Bft)
01.05.2015 15:40 14,9 C 13,3 C 52 % 1007,4 hPa 0,0 l/m 2 min 0 min 750 W/m 14,6 km/h (3 Bft)
01.05.2015 15:42 14,9 C 13,3 C 52 % 1007,4 hPa 0,0 l/m 2 min 0 min 786 W/m 18,8 km/h (3 Bft)
01.05.2015 15:44 15,0 C 13,3 C 52 % 1007,4 hPa 0,0 l/m 2 min 0 min 726 W/m 14,6 km/h (3 Bft)
01.05.2015 15:46 15,1 C 13,3 C 52 % 1007,4 hPa 0,0 l/m 2 min 0 min 724 W/m 16,7 km/h (3 Bft)
01.05.2015 15:48 15,1 C 13,3 C 50 % 1007,5 hPa 0,0 l/m 2 min 0 min 797 W/m 16,7 km/h (3 Bft)
01.05.2015 15:50 15,1 C 13,3 C 51 % 1007,5 hPa 0,0 l/m 2 min 0 min 852 W/m 18,8 km/h (3 Bft)
01.05.2015 15:52 15,1 C 13,3 C 51 % 1007,5 hPa 0,0 l/m 2 min 0 min 854 W/m 18,8 km/h (3 Bft)
01.05.2015 15:54 15,2 C 13,3 C 50 % 1007,5 hPa 0,0 l/m 2 min 0 min 829 W/m 14,6 km/h (3 Bft)
01.05.2015 15:56 15,2 C 13,3 C 50 % 1007,5 hPa 0,0 l/m 2 min 0 min 840 W/m 10,5 km/h (2 Bft)
01.05.2015 15:58 15,3 C 13,3 C 50 % 1007,5 hPa 0,0 l/m 2 min 0 min 824 W/m 12,6 km/h (3 Bft)
01.05.2015 16:00 15,4 C 13,3 C 50 % 1007,4 hPa 0,0 l/m 2 min 0 min 657 W/m 14,6 km/h (3 Bft)
01.05.2015 16:02 15,4 C 13,3 C 50 % 1007,4 hPa 0,0 l/m 2 min 0 min 350 W/m 10,5 km/h (2 Bft)
01.05.2015 16:04 15,4 C 12,8 C 49 % 1007,5 hPa 0,0 l/m 0 min 0 min 276 W/m 12,6 km/h (3 Bft)
01.05.2015 16:06 15,3 C 12,8 C 49 % 1007,3 hPa 0,0 l/m 2 min 0 min 385 W/m 12,6 km/h (3 Bft)
01.05.2015 16:08 15,2 C 12,8 C 49 % 1007,3 hPa 0,0 l/m 2 min 0 min 477 W/m 12,6 km/h (3 Bft)
01.05.2015 16:10 15,2 C 12,8 C 49 % 1007,3 hPa 0,0 l/m 2 min 0 min 353 W/m 12,6 km/h (3 Bft)
01.05.2015 16:12 15,1 C 12,8 C 51 % 1007,2 hPa 0,0 l/m 0 min 0 min 284 W/m 18,8 km/h (3 Bft)
01.05.2015 16:14 15,0 C 12,8 C 51 % 1007,3 hPa 0,0 l/m 0 min 0 min 278 W/m 16,7 km/h (3 Bft)
01.05.2015 16:16 14,9 C 12,8 C 51 % 1007,3 hPa 0,0 l/m 0 min 0 min 288 W/m 12,6 km/h (3 Bft)
01.05.2015 16:18 14,9 C 12,8 C 50 % 1007,2 hPa 0,0 l/m 0 min 0 min 316 W/m 18,8 km/h (3 Bft)
01.05.2015 16:20 14,8 C 12,8 C 49 % 1007,2 hPa 0,0 l/m 2 min 0 min 733 W/m 16,7 km/h (3 Bft)
01.05.2015 16:22 14,7 C 12,8 C 50 % 1007,2 hPa 0,0 l/m 2 min 0 min 720 W/m 18,8 km/h (3 Bft)
01.05.2015 16:24 14,7 C 12,8 C 50 % 1007,1 hPa 0,0 l/m 2 min 0 min 623 W/m 20,9 km/h (4 Bft)
01.05.2015 16:26 14,6 C 12,2 C 49 % 1007,0 hPa 0,0 l/m 2 min 0 min 370 W/m 20,9 km/h (4 Bft)
01.05.2015 16:28 14,5 C 12,2 C 49 % 1007,0 hPa 0,0 l/m 0 min 0 min 186 W/m 14,6 km/h (3 Bft)
01.05.2015 16:30 14,4 C 12,2 C 50 % 1007,0 hPa 0,0 l/m 2 min 0 min 383 W/m 14,6 km/h (3 Bft)
01.05.2015 16:32 14,5 C 12,2 C 51 % 1007,0 hPa 0,0 l/m 2 min 0 min 652 W/m 14,6 km/h (3 Bft)
01.05.2015 16:34 14,5 C 12,2 C 50 % 1007,0 hPa 0,0 l/m 2 min 0 min 612 W/m 8,4 km/h (2 Bft)
01.05.2015 16:36 14,5 C 12,2 C 50 % 1007,1 hPa 0,0 l/m 0 min 0 min 262 W/m 6,3 km/h (2 Bft)
01.05.2015 16:38 14,5 C 12,2 C 50 % 1007,0 hPa 0,0 l/m 2 min 0 min 485 W/m 10,5 km/h (2 Bft)
01.05.2015 16:40 14,6 C 12,2 C 50 % 1007,0 hPa 0,0 l/m 2 min 0 min 643 W/m 10,5 km/h (2 Bft)
01.05.2015 16:42 14,6 C 12,2 C 49 % 1007,0 hPa 0,0 l/m 2 min 0 min 540 W/m 12,6 km/h (3 Bft)
01.05.2015 16:44 14,6 C 12,8 C 50 % 1007,0 hPa 0,0 l/m 2 min 0 min 448 W/m 12,6 km/h (3 Bft)
01.05.2015 16:46 14,6 C 12,8 C 49 % 1007,0 hPa 0,0 l/m 2 min 0 min 413 W/m 10,5 km/h (2 Bft)
01.05.2015 16:48 14,7 C 12,8 C 49 % 1007,0 hPa 0,0 l/m 2 min 0 min 553 W/m 18,8 km/h (3 Bft)
01.05.2015 16:50 14,7 C 12,8 C 49 % 1007,0 hPa 0,0 l/m 2 min 0 min 513 W/m 10,5 km/h (2 Bft)
01.05.2015 16:52 14,7 C 12,8 C 48 % 1007,0 hPa 0,0 l/m 2 min 0 min 476 W/m 14,6 km/h (3 Bft)
01.05.2015 16:54 14,7 C 12,8 C 48 % 1007,1 hPa 0,0 l/m 2 min 0 min 488 W/m 12,6 km/h (3 Bft)
01.05.2015 16:56 14,7 C 12,2 C 47 % 1007,0 hPa 0,0 l/m 2 min 0 min 450 W/m 12,6 km/h (3 Bft)
01.05.2015 16:58 14,6 C 12,2 C 48 % 1007,0 hPa 0,0 l/m 2 min 0 min 321 W/m 8,4 km/h (2 Bft)
01.05.2015 17:00 14,6 C 12,2 C 48 % 1007,0 hPa 0,0 l/m 2 min 0 min 314 W/m 6,3 km/h (2 Bft)
01.05.2015 17:02 14,6 C 12,2 C 48 % 1007,1 hPa 0,0 l/m 2 min 0 min 407 W/m 4,2 km/h (1 Bft)
01.05.2015 17:04 14,6 C 12,2 C 48 % 1007,1 hPa 0,0 l/m 2 min 0 min 355 W/m 14,6 km/h (3 Bft)
01.05.2015 17:06 14,6 C 12,2 C 48 % 1007,0 hPa 0,0 l/m 2 min 0 min 296 W/m 10,5 km/h (2 Bft)
01.05.2015 17:08 14,5 C 12,2 C 50 % 1006,9 hPa 0,0 l/m 2 min 0 min 307 W/m 10,5 km/h (2 Bft)
01.05.2015 17:10 14,5 C 12,2 C 49 % 1006,8 hPa 0,0 l/m 2 min 0 min 389 W/m 8,4 km/h (2 Bft)
01.05.2015 17:12 14,4 C 12,2 C 48 % 1006,9 hPa 0,0 l/m 2 min 0 min 463 W/m 16,7 km/h (3 Bft)
01.05.2015 17:14 14,4 C 12,2 C 48 % 1006,9 hPa 0,0 l/m 2 min 0 min 496 W/m 14,6 km/h (3 Bft)
01.05.2015 17:16 14,4 C 12,8 C 49 % 1006,8 hPa 0,0 l/m 2 min 0 min 388 W/m 14,6 km/h (3 Bft)
01.05.2015 17:18 14,4 C 12,8 C 49 % 1006,7 hPa 0,0 l/m 2 min 0 min 333 W/m 10,5 km/h (2 Bft)
01.05.2015 17:20 14,4 C 12,2 C 48 % 1006,9 hPa 0,0 l/m 2 min 0 min 351 W/m 14,6 km/h (3 Bft)
01.05.2015 17:22 14,4 C 12,2 C 50 % 1006,9 hPa 0,0 l/m 2 min 0 min 290 W/m 6,3 km/h (2 Bft)
01.05.2015 17:24 14,4 C 12,2 C 49 % 1006,9 hPa 0,0 l/m 0 min 0 min 248 W/m 8,4 km/h (2 Bft)
01.05.2015 17:26 14,4 C 12,2 C 49 % 1007,0 hPa 0,0 l/m 0 min 0 min 244 W/m 8,4 km/h (2 Bft)
01.05.2015 17:28 14,4 C 12,2 C 49 % 1007,0 hPa 0,0 l/m 2 min 0 min 290 W/m 14,6 km/h (3 Bft)
01.05.2015 17:30 14,4 C 12,2 C 49 % 1007,0 hPa 0,0 l/m 2 min 0 min 361 W/m 14,6 km/h (3 Bft)
01.05.2015 17:32 14,4 C 12,2 C 50 % 1006,8 hPa 0,0 l/m 2 min 0 min 493 W/m 14,6 km/h (3 Bft)
01.05.2015 17:34 14,3 C 12,2 C 50 % 1006,8 hPa 0,0 l/m 2 min 0 min 532 W/m 18,8 km/h (3 Bft)
01.05.2015 17:36 14,3 C 12,2 C 50 % 1006,9 hPa 0,0 l/m 2 min 0 min 441 W/m 8,4 km/h (2 Bft)
01.05.2015 17:38 14,4 C 12,2 C 50 % 1006,8 hPa 0,0 l/m 2 min 0 min 493 W/m 14,6 km/h (3 Bft)
01.05.2015 17:40 14,4 C 12,8 C 51 % 1006,8 hPa 0,0 l/m 2 min 0 min 565 W/m 12,6 km/h (3 Bft)
01.05.2015 17:42 14,4 C 12,8 C 50 % 1006,8 hPa 0,0 l/m 2 min 0 min 516 W/m 10,5 km/h (2 Bft)
01.05.2015 17:44 14,5 C 12,8 C 52 % 1006,7 hPa 0,0 l/m 2 min 0 min 300 W/m 8,4 km/h (2 Bft)
01.05.2015 17:46 14,6 C 12,8 C 50 % 1006,8 hPa 0,0 l/m 2 min 0 min 305 W/m 14,6 km/h (3 Bft)
01.05.2015 17:48 14,6 C 12,8 C 50 % 1006,8 hPa 0,0 l/m 2 min 0 min 294 W/m 14,6 km/h (3 Bft)
01.05.2015 17:50 14,6 C 12,8 C 48 % 1006,8 hPa 0,0 l/m 2 min 0 min 313 W/m 12,6 km/h (3 Bft)
01.05.2015 17:52 14,6 C 12,2 C 47 % 1006,8 hPa 0,0 l/m 2 min 0 min 302 W/m 16,7 km/h (3 Bft)
01.05.2015 17:54 14,5 C 12,2 C 47 % 1006,8 hPa 0,0 l/m 2 min 0 min 236 W/m 16,7 km/h (3 Bft)
01.05.2015 17:56 14,3 C 12,2 C 47 % 1006,8 hPa 0,0 l/m 2 min 0 min 246 W/m 16,7 km/h (3 Bft)
01.05.2015 17:58 14,2 C 12,2 C 48 % 1006,8 hPa 0,0 l/m 2 min 0 min 230 W/m 12,6 km/h (3 Bft)
01.05.2015 18:00 14,2 C 12,2 C 48 % 1006,7 hPa 0,0 l/m 2 min 0 min 236 W/m 16,7 km/h (3 Bft)
01.05.2015 18:02 14,2 C 12,2 C 49 % 1006,7 hPa 0,0 l/m 2 min 0 min 233 W/m 16,7 km/h (3 Bft)
01.05.2015 18:06 14,2 C 12,2 C 48 % 1006,8 hPa 0,0 l/m 2 min 0 min 239 W/m 14,6 km/h (3 Bft)
01.05.2015 18:08 14,1 C 12,2 C 47 % 1006,7 hPa 0,0 l/m 2 min 0 min 216 W/m 10,5 km/h (2 Bft)
01.05.2015 18:10 14,0 C 12,2 C 48 % 1006,7 hPa 0,0 l/m 2 min 0 min 202 W/m 16,7 km/h (3 Bft)
01.05.2015 18:12 13,9 C 12,2 C 48 % 1006,8 hPa 0,0 l/m 2 min 0 min 204 W/m 18,8 km/h (3 Bft)
01.05.2015 18:14 13,9 C 12,2 C 49 % 1006,8 hPa 0,0 l/m 2 min 0 min 216 W/m 12,6 km/h (3 Bft)
01.05.2015 18:16 13,9 C 12,2 C 49 % 1006,7 hPa 0,0 l/m 2 min 0 min 242 W/m 10,5 km/h (2 Bft)
01.05.2015 18:18 13,9 C 12,2 C 50 % 1006,8 hPa 0,0 l/m 2 min 0 min 244 W/m 14,6 km/h (3 Bft)
01.05.2015 18:20 13,8 C 12,2 C 48 % 1006,8 hPa 0,0 l/m 2 min 0 min 236 W/m 14,6 km/h (3 Bft)
01.05.2015 18:22 13,8 C 12,2 C 49 % 1006,7 hPa 0,0 l/m 2 min 0 min 284 W/m 18,8 km/h (3 Bft)
01.05.2015 18:24 13,8 C 12,2 C 49 % 1006,7 hPa 0,0 l/m 2 min 0 min 355 W/m 14,6 km/h (3 Bft)
01.05.2015 18:26 13,8 C 12,2 C 48 % 1006,7 hPa 0,0 l/m 2 min 0 min 403 W/m 12,6 km/h (3 Bft)
01.05.2015 18:28 13,8 C 12,2 C 48 % 1006,7 hPa 0,0 l/m 2 min 0 min 378 W/m 14,6 km/h (3 Bft)
01.05.2015 18:30 13,8 C 12,2 C 49 % 1006,7 hPa 0,0 l/m 2 min 0 min 313 W/m 12,6 km/h (3 Bft)
01.05.2015 18:32 13,8 C 12,2 C 49 % 1006,7 hPa 0,0 l/m 2 min 0 min 306 W/m 20,9 km/h (4 Bft)
01.05.2015 18:34 13,8 C 11,7 C 48 % 1006,6 hPa 0,0 l/m 2 min 0 min 285 W/m 14,6 km/h (3 Bft)
01.05.2015 18:36 13,8 C 11,7 C 47 % 1006,6 hPa 0,0 l/m 2 min 0 min 237 W/m 16,7 km/h (3 Bft)
01.05.2015 18:38 13,7 C 11,7 C 49 % 1006,6 hPa 0,0 l/m 2 min 0 min 227 W/m 23,0 km/h (4 Bft)
01.05.2015 18:40 13,7 C 11,7 C 50 % 1006,7 hPa 0,0 l/m 2 min 0 min 231 W/m 18,8 km/h (3 Bft)
01.05.2015 18:42 13,7 C 11,7 C 50 % 1006,8 hPa 0,0 l/m 2 min 0 min 200 W/m 20,9 km/h (4 Bft)
01.05.2015 18:44 13,7 C 11,7 C 50 % 1006,8 hPa 0,0 l/m 0 min 0 min 157 W/m 18,8 km/h (3 Bft)
01.05.2015 18:46 13,6 C 11,7 C 50 % 1006,8 hPa 0,0 l/m 2 min 0 min 177 W/m 20,9 km/h (4 Bft)
01.05.2015 18:48 13,6 C 11,1 C 50 % 1006,8 hPa 0,0 l/m 2 min 0 min 196 W/m 16,7 km/h (3 Bft)
01.05.2015 18:50 13,6 C 11,1 C 50 % 1006,8 hPa 0,0 l/m 2 min 0 min 197 W/m 16,7 km/h (3 Bft)
01.05.2015 18:52 13,5 C 11,1 C 50 % 1006,8 hPa 0,0 l/m 2 min 0 min 188 W/m 20,9 km/h (4 Bft)
01.05.2015 18:54 13,4 C 11,1 C 49 % 1006,8 hPa 0,0 l/m 2 min 0 min 270 W/m 20,9 km/h (4 Bft)
01.05.2015 18:56 13,4 C 11,1 C 49 % 1006,8 hPa 0,0 l/m 2 min 0 min 298 W/m 12,6 km/h (3 Bft)
01.05.2015 18:58 13,4 C 11,1 C 50 % 1006,8 hPa 0,0 l/m 2 min 0 min 302 W/m 14,6 km/h (3 Bft)
01.05.2015 19:00 13,4 C 11,1 C 50 % 1006,8 hPa 0,0 l/m 2 min 0 min 290 W/m 14,6 km/h (3 Bft)
01.05.2015 19:02 13,4 C 11,1 C 50 % 1006,8 hPa 0,0 l/m 2 min 0 min 284 W/m 16,7 km/h (3 Bft)
01.05.2015 19:04 13,4 C 11,1 C 49 % 1006,7 hPa 0,0 l/m 2 min 0 min 239 W/m 18,8 km/h (3 Bft)
01.05.2015 19:06 13,4 C 11,1 C 49 % 1006,7 hPa 0,0 l/m 2 min 0 min 254 W/m 12,6 km/h (3 Bft)
01.05.2015 19:08 13,3 C 11,1 C 49 % 1006,7 hPa 0,0 l/m 2 min 0 min 235 W/m 14,6 km/h (3 Bft)
01.05.2015 19:10 13,3 C 11,1 C 49 % 1006,7 hPa 0,0 l/m 2 min 0 min 221 W/m 18,8 km/h (3 Bft)
01.05.2015 19:12 13,3 C 11,1 C 49 % 1006,7 hPa 0,0 l/m 2 min 0 min 208 W/m 14,6 km/h (3 Bft)
01.05.2015 19:14 13,3 C 11,1 C 48 % 1006,7 hPa 0,0 l/m 2 min 0 min 196 W/m 10,5 km/h (2 Bft)
01.05.2015 19:16 13,3 C 11,1 C 48 % 1006,6 hPa 0,0 l/m 2 min 0 min 185 W/m 12,6 km/h (3 Bft)
01.05.2015 19:18 13,3 C 10,6 C 49 % 1006,6 hPa 0,0 l/m 2 min 0 min 176 W/m 12,6 km/h (3 Bft)
01.05.2015 19:20 13,3 C 10,6 C 49 % 1006,6 hPa 0,0 l/m 2 min 0 min 168 W/m 12,6 km/h (3 Bft)
01.05.2015 19:22 13,3 C 10,6 C 49 % 1006,7 hPa 0,0 l/m 2 min 0 min 157 W/m 8,4 km/h (2 Bft)
01.05.2015 19:24 13,2 C 10,6 C 49 % 1006,6 hPa 0,0 l/m 2 min 0 min 130 W/m 12,6 km/h (3 Bft)
01.05.2015 19:26 13,2 C 10,6 C 48 % 1006,6 hPa 0,0 l/m 2 min 0 min 146 W/m 12,6 km/h (3 Bft)
01.05.2015 19:28 13,2 C 10,6 C 48 % 1006,6 hPa 0,0 l/m 2 min 0 min 141 W/m 14,6 km/h (3 Bft)
01.05.2015 19:30 13,2 C 10,6 C 47 % 1006,6 hPa 0,0 l/m 2 min 0 min 129 W/m 14,6 km/h (3 Bft)
01.05.2015 19:32 13,1 C 10,6 C 47 % 1006,6 hPa 0,0 l/m 2 min 0 min 111 W/m 14,6 km/h (3 Bft)
01.05.2015 19:34 13,1 C 10,6 C 47 % 1006,6 hPa 0,0 l/m 2 min 0 min 100 W/m 14,6 km/h (3 Bft)
01.05.2015 19:36 13,1 C 10,6 C 48 % 1006,6 hPa 0,0 l/m 2 min 0 min 117 W/m 12,6 km/h (3 Bft)
01.05.2015 19:38 13,1 C 10,6 C 48 % 1006,6 hPa 0,0 l/m 2 min 0 min 116 W/m 16,7 km/h (3 Bft)
01.05.2015 19:40 13,0 C 10,6 C 48 % 1006,7 hPa 0,0 l/m 2 min 0 min 110 W/m 14,6 km/h (3 Bft)
01.05.2015 19:42 13,0 C 10,6 C 48 % 1006,8 hPa 0,0 l/m 2 min 0 min 105 W/m 8,4 km/h (2 Bft)
01.05.2015 19:44 13,0 C 10,6 C 49 % 1006,8 hPa 0,0 l/m 2 min 0 min 99 W/m 12,6 km/h (3 Bft)
01.05.2015 19:46 12,9 C 10,6 C 49 % 1006,7 hPa 0,0 l/m 2 min 0 min 95 W/m 10,5 km/h (2 Bft)
01.05.2015 19:48 12,9 C 10,6 C 50 % 1006,8 hPa 0,0 l/m 2 min 0 min 91 W/m 10,5 km/h (2 Bft)
01.05.2015 19:50 12,9 C 10,6 C 50 % 1006,9 hPa 0,0 l/m 2 min 0 min 86 W/m 10,5 km/h (2 Bft)
01.05.2015 19:52 12,9 C 10,6 C 49 % 1006,9 hPa 0,0 l/m 2 min 0 min 81 W/m 10,5 km/h (2 Bft)
01.05.2015 19:54 12,9 C 10,6 C 50 % 1006,9 hPa 0,0 l/m 2 min 0 min 77 W/m 10,5 km/h (2 Bft)
01.05.2015 19:56 12,9 C 10,6 C 50 % 1006,8 hPa 0,0 l/m 2 min 0 min 71 W/m 14,6 km/h (3 Bft)
01.05.2015 19:58 12,8 C 10,0 C 51 % 1006,8 hPa 0,0 l/m 2 min 0 min 66 W/m 14,6 km/h (3 Bft)
01.05.2015 20:00 12,8 C 10,0 C 51 % 1006,8 hPa 0,0 l/m 0 min 0 min 62 W/m 14,6 km/h (3 Bft)
01.05.2015 20:02 12,8 C 10,0 C 51 % 1006,8 hPa 0,0 l/m 0 min 0 min 57 W/m 10,5 km/h (2 Bft)
01.05.2015 20:04 12,8 C 10,0 C 51 % 1006,7 hPa 0,0 l/m 0 min 0 min 52 W/m 12,6 km/h (3 Bft)
01.05.2015 20:06 12,7 C 10,0 C 52 % 1006,8 hPa 0,0 l/m 0 min 0 min 47 W/m 10,5 km/h (2 Bft)
01.05.2015 20:08 12,7 C 10,0 C 52 % 1006,8 hPa 0,0 l/m 0 min 0 min 43 W/m 16,7 km/h (3 Bft)
01.05.2015 20:10 12,7 C 10,0 C 52 % 1006,8 hPa 0,0 l/m 0 min 0 min 39 W/m 14,6 km/h (3 Bft)
01.05.2015 20:12 12,7 C 10,0 C 53 % 1006,8 hPa 0,0 l/m 0 min 0 min 37 W/m 10,5 km/h (2 Bft)
01.05.2015 20:14 12,6 C 10,0 C 53 % 1006,8 hPa 0,0 l/m 0 min 0 min 33 W/m 14,6 km/h (3 Bft)
01.05.2015 20:16 12,6 C 10,0 C 53 % 1006,8 hPa 0,0 l/m 0 min 0 min 32 W/m 12,6 km/h (3 Bft)
01.05.2015 20:18 12,5 C 10,0 C 53 % 1006,8 hPa 0,0 l/m 0 min 0 min 29 W/m 14,6 km/h (3 Bft)
01.05.2015 20:20 12,5 C 10,0 C 53 % 1006,9 hPa 0,0 l/m 0 min 0 min 27 W/m 10,5 km/h (2 Bft)
01.05.2015 20:22 12,4 C 10,0 C 54 % 1006,9 hPa 0,0 l/m 0 min 0 min 25 W/m 8,4 km/h (2 Bft)
01.05.2015 20:24 12,4 C 10,0 C 54 % 1006,9 hPa 0,0 l/m 0 min 0 min 25 W/m 10,5 km/h (2 Bft)
01.05.2015 20:26 12,4 C 9,4 C 54 % 1006,9 hPa 0,0 l/m 0 min 0 min 23 W/m 10,5 km/h (2 Bft)
01.05.2015 20:28 12,3 C 9,4 C 54 % 1006,9 hPa 0,0 l/m 0 min 0 min 21 W/m 6,3 km/h (2 Bft)
01.05.2015 20:30 12,3 C 9,4 C 54 % 1006,9 hPa 0,0 l/m 0 min 0 min 20 W/m 8,4 km/h (2 Bft)
01.05.2015 20:32 12,3 C 9,4 C 54 % 1007,0 hPa 0,0 l/m 0 min 0 min 19 W/m 6,3 km/h (2 Bft)
01.05.2015 20:34 12,2 C 9,4 C 54 % 1007,0 hPa 0,0 l/m 0 min 0 min 18 W/m 8,4 km/h (2 Bft)
01.05.2015 20:36 12,2 C 9,4 C 54 % 1007,1 hPa 0,0 l/m 0 min 0 min 17 W/m 8,4 km/h (2 Bft)
01.05.2015 20:38 12,2 C 9,4 C 54 % 1007,1 hPa 0,0 l/m 0 min 0 min 16 W/m 8,4 km/h (2 Bft)
01.05.2015 20:40 12,1 C 9,4 C 55 % 1007,1 hPa 0,0 l/m 0 min 0 min 14 W/m 12,6 km/h (3 Bft)
01.05.2015 20:42 12,1 C 9,4 C 55 % 1007,2 hPa 0,0 l/m 0 min 0 min 12 W/m 10,5 km/h (2 Bft)
01.05.2015 20:44 12,1 C 8,9 C 55 % 1007,2 hPa 0,0 l/m 0 min 0 min 11 W/m 10,5 km/h (2 Bft)
01.05.2015 20:46 12,0 C 8,9 C 55 % 1007,2 hPa 0,0 l/m 0 min 0 min 10 W/m 8,4 km/h (2 Bft)
01.05.2015 20:48 11,9 C 8,9 C 55 % 1007,2 hPa 0,0 l/m 0 min 0 min 9 W/m 10,5 km/h (2 Bft)
01.05.2015 20:50 11,9 C 8,9 C 56 % 1007,2 hPa 0,0 l/m 0 min 0 min 9 W/m 6,3 km/h (2 Bft)
01.05.2015 20:52 11,8 C 8,9 C 56 % 1007,1 hPa 0,0 l/m 0 min 0 min 7 W/m 8,4 km/h (2 Bft)
01.05.2015 20:54 11,8 C 8,9 C 56 % 1007,2 hPa 0,0 l/m 0 min 0 min 7 W/m 8,4 km/h (2 Bft)
01.05.2015 20:56 11,7 C 8,9 C 56 % 1007,2 hPa 0,0 l/m 0 min 0 min 6 W/m 8,4 km/h (2 Bft)
01.05.2015 20:58 11,7 C 8,9 C 57 % 1007,2 hPa 0,0 l/m 0 min 0 min 5 W/m 8,4 km/h (2 Bft)
01.05.2015 21:00 11,6 C 8,9 C 57 % 1007,2 hPa 0,0 l/m 0 min 0 min 5 W/m 6,3 km/h (2 Bft)
01.05.2015 21:02 11,6 C 8,9 C 57 % 1007,3 hPa 0,0 l/m 0 min 0 min 5 W/m 8,4 km/h (2 Bft)
01.05.2015 21:04 11,5 C 8,9 C 57 % 1007,2 hPa 0,0 l/m 0 min 0 min 1 W/m 6,3 km/h (2 Bft)
01.05.2015 21:06 11,4 C 8,9 C 57 % 1007,3 hPa 0,0 l/m 0 min 0 min 0 W/m 6,3 km/h (2 Bft)
01.05.2015 21:08 11,4 C 8,3 C 57 % 1007,3 hPa 0,0 l/m 0 min 0 min 0 W/m 6,3 km/h (2 Bft)
01.05.2015 21:10 11,3 C 8,3 C 58 % 1007,3 hPa 0,0 l/m 0 min 0 min 0 W/m 8,4 km/h (2 Bft)
01.05.2015 21:12 11,3 C 8,3 C 58 % 1007,3 hPa 0,0 l/m 0 min 0 min 0 W/m 8,4 km/h (2 Bft)
01.05.2015 21:14 11,2 C 8,3 C 58 % 1007,4 hPa 0,0 l/m 0 min 0 min 0 W/m 8,4 km/h (2 Bft)
01.05.2015 21:16 11,2 C 8,3 C 58 % 1007,3 hPa 0,0 l/m 0 min 0 min 0 W/m 10,5 km/h (2 Bft)
01.05.2015 21:18 11,1 C 8,3 C 58 % 1007,4 hPa 0,0 l/m 0 min 0 min 0 W/m 6,3 km/h (2 Bft)
01.05.2015 21:20 11,1 C 8,3 C 58 % 1007,4 hPa 0,0 l/m 0 min 0 min 0 W/m 8,4 km/h (2 Bft)
01.05.2015 21:22 11,0 C 8,3 C 59 % 1007,4 hPa 0,0 l/m 0 min 0 min 0 W/m 8,4 km/h (2 Bft)
01.05.2015 21:24 10,9 C 8,3 C 59 % 1007,5 hPa 0,0 l/m 0 min 0 min 0 W/m 6,3 km/h (2 Bft)
01.05.2015 21:26 10,9 C 8,3 C 59 % 1007,5 hPa 0,0 l/m 0 min 0 min 0 W/m 6,3 km/h (2 Bft)
01.05.2015 21:28 10,8 C 8,3 C 60 % 1007,6 hPa 0,0 l/m 0 min 0 min 0 W/m 8,4 km/h (2 Bft)
01.05.2015 21:30 10,8 C 8,3 C 59 % 1007,5 hPa 0,0 l/m 0 min 0 min 0 W/m 6,3 km/h (2 Bft)
01.05.2015 21:32 10,8 C 7,8 C 60 % 1007,6 hPa 0,0 l/m 0 min 0 min 0 W/m 6,3 km/h (2 Bft)
01.05.2015 21:34 10,7 C 7,8 C 60 % 1007,6 hPa 0,0 l/m 0 min 0 min 0 W/m 6,3 km/h (2 Bft)
01.05.2015 21:36 10,7 C 7,8 C 60 % 1007,6 hPa 0,0 l/m 0 min 0 min 0 W/m 4,2 km/h (1 Bft)
01.05.2015 21:38 10,6 C 7,8 C 60 % 1007,6 hPa 0,0 l/m 0 min 0 min 0 W/m 4,2 km/h (1 Bft)
01.05.2015 21:40 10,6 C 7,2 C 61 % 1007,6 hPa 0,0 l/m 0 min 0 min 0 W/m 4,2 km/h (1 Bft)
01.05.2015 21:42 10,5 C 7,2 C 61 % 1007,7 hPa 0,0 l/m 0 min 0 min 0 W/m 6,3 km/h (2 Bft)
01.05.2015 21:44 10,4 C 7,2 C 61 % 1007,7 hPa 0,0 l/m 0 min 0 min 0 W/m 6,3 km/h (2 Bft)
01.05.2015 21:46 10,4 C 7,2 C 61 % 1007,6 hPa 0,0 l/m 0 min 0 min 0 W/m 4,2 km/h (1 Bft)
01.05.2015 21:48 10,3 C 7,2 C 61 % 1007,7 hPa 0,0 l/m 0 min 0 min 0 W/m 4,2 km/h (1 Bft)
01.05.2015 21:50 10,2 C 7,2 C 62 % 1007,7 hPa 0,0 l/m 0 min 0 min 0 W/m 4,2 km/h (1 Bft)
01.05.2015 21:52 10,2 C 6,7 C 62 % 1007,7 hPa 0,0 l/m 0 min 0 min 0 W/m 4,2 km/h (1 Bft)
01.05.2015 21:54 10,1 C 6,7 C 62 % 1007,7 hPa 0,0 l/m 0 min 0 min 0 W/m 4,2 km/h (1 Bft)
01.05.2015 21:56 10,0 C 6,7 C 63 % 1007,8 hPa 0,0 l/m 0 min 0 min 0 W/m 2,1 km/h (1 Bft)
01.05.2015 21:58 9,9 C 6,7 C 63 % 1007,8 hPa 0,0 l/m 0 min 0 min 0 W/m 4,2 km/h (1 Bft)
01.05.2015 22:00 9,9 C 6,7 C 63 % 1007,8 hPa 0,0 l/m 0 min 0 min 0 W/m 6,3 km/h (2 Bft)
01.05.2015 22:02 9,8 C 6,7 C 63 % 1007,7 hPa 0,0 l/m 0 min 0 min 0 W/m 4,2 km/h (1 Bft)
01.05.2015 22:04 9,7 C 6,7 C 63 % 1007,7 hPa 0,0 l/m 0 min 0 min 0 W/m 4,2 km/h (1 Bft)
01.05.2015 22:06 9,7 C 6,7 C 64 % 1007,7 hPa 0,0 l/m 0 min 0 min 0 W/m 6,3 km/h (2 Bft)
01.05.2015 22:08 9,6 C 6,1 C 64 % 1007,8 hPa 0,0 l/m 0 min 0 min 0 W/m 4,2 km/h (1 Bft)
01.05.2015 22:10 9,5 C 6,1 C 64 % 1007,8 hPa 0,0 l/m 0 min 0 min 0 W/m 6,3 km/h (2 Bft)
01.05.2015 22:12 9,4 C 6,1 C 65 % 1007,8 hPa 0,0 l/m 0 min 0 min 0 W/m 6,3 km/h (2 Bft)
01.05.2015 22:14 9,3 C 6,1 C 65 % 1007,9 hPa 0,0 l/m 0 min 0 min 0 W/m 6,3 km/h (2 Bft)
01.05.2015 22:16 9,2 C 6,1 C 65 % 1007,9 hPa 0,0 l/m 0 min 0 min 0 W/m 4,2 km/h (1 Bft)
01.05.2015 22:18 9,2 C 6,1 C 66 % 1007,9 hPa 0,0 l/m 0 min 0 min 0 W/m 6,3 km/h (2 Bft)
01.05.2015 22:20 9,1 C 6,1 C 66 % 1008,0 hPa 0,0 l/m 0 min 0 min 0 W/m 4,2 km/h (1 Bft)
01.05.2015 22:22 9,0 C 6,1 C 66 % 1008,0 hPa 0,0 l/m 0 min 0 min 0 W/m 6,3 km/h (2 Bft)
01.05.2015 22:24 8,9 C 6,1 C 66 % 1008,0 hPa 0,0 l/m 0 min 0 min 0 W/m 6,3 km/h (2 Bft)
01.05.2015 22:26 8,8 C 6,1 C 66 % 1008,1 hPa 0,0 l/m 0 min 0 min 0 W/m 4,2 km/h (1 Bft)
01.05.2015 22:28 8,8 C 6,1 C 67 % 1008,1 hPa 0,0 l/m 0 min 0 min 0 W/m 6,3 km/h (2 Bft)
01.05.2015 22:30 8,7 C 6,1 C 67 % 1008,1 hPa 0,0 l/m 0 min 0 min 0 W/m 6,3 km/h (2 Bft)
01.05.2015 22:32 8,7 C 6,1 C 67 % 1008,1 hPa 0,0 l/m 0 min 0 min 0 W/m 6,3 km/h (2 Bft)
01.05.2015 22:34 8,6 C 6,1 C 67 % 1008,2 hPa 0,0 l/m 0 min 0 min 0 W/m 6,3 km/h (2 Bft)
01.05.2015 22:36 8,6 C 6,1 C 67 % 1008,2 hPa 0,0 l/m 0 min 0 min 0 W/m 8,4 km/h (2 Bft)
01.05.2015 22:38 8,6 C 6,1 C 67 % 1008,2 hPa 0,0 l/m 0 min 0 min 0 W/m 6,3 km/h (2 Bft)
01.05.2015 22:40 8,5 C 6,1 C 68 % 1008,2 hPa 0,0 l/m 0 min 0 min 0 W/m 6,3 km/h (2 Bft)
01.05.2015 22:42 8,4 C 6,7 C 68 % 1008,2 hPa 0,0 l/m 0 min 0 min 0 W/m 8,4 km/h (2 Bft)
01.05.2015 22:44 8,4 C 6,7 C 68 % 1008,2 hPa 0,0 l/m 0 min 0 min 0 W/m 8,4 km/h (2 Bft)
01.05.2015 22:46 8,4 C 6,7 C 68 % 1008,2 hPa 0,0 l/m 0 min 0 min 0 W/m 4,2 km/h (1 Bft)
01.05.2015 22:48 8,4 C 6,7 C 68 % 1008,2 hPa 0,0 l/m 0 min 0 min 0 W/m 4,2 km/h (1 Bft)
01.05.2015 22:50 8,4 C 6,7 C 68 % 1008,2 hPa 0,0 l/m 0 min 0 min 0 W/m 4,2 km/h (1 Bft)
01.05.2015 22:52 8,4 C 6,7 C 68 % 1008,2 hPa 0,0 l/m 0 min 0 min 0 W/m 4,2 km/h (1 Bft)
01.05.2015 22:54 8,3 C 6,7 C 68 % 1008,3 hPa 0,0 l/m 0 min 0 min 0 W/m 4,2 km/h (1 Bft)
01.05.2015 22:56 8,3 C 6,7 C 68 % 1008,2 hPa 0,0 l/m 0 min 0 min 0 W/m 4,2 km/h (1 Bft)
01.05.2015 22:58 8,3 C 6,7 C 68 % 1008,3 hPa 0,0 l/m 0 min 0 min 0 W/m 4,2 km/h (1 Bft)
01.05.2015 23:00 8,3 C 6,7 C 68 % 1008,3 hPa 0,0 l/m 0 min 0 min 0 W/m 4,2 km/h (1 Bft)
01.05.2015 23:02 8,3 C 6,7 C 69 % 1008,4 hPa 0,0 l/m 0 min 0 min 0 W/m 6,3 km/h (2 Bft)
01.05.2015 23:04 8,3 C 6,7 C 68 % 1008,5 hPa 0,0 l/m 0 min 0 min 0 W/m 4,2 km/h (1 Bft)
01.05.2015 23:06 8,3 C 6,7 C 69 % 1008,5 hPa 0,0 l/m 0 min 0 min 0 W/m 6,3 km/h (2 Bft)
01.05.2015 23:08 8,3 C 6,7 C 69 % 1008,6 hPa 0,0 l/m 0 min 0 min 0 W/m 6,3 km/h (2 Bft)
01.05.2015 23:10 8,3 C 6,7 C 69 % 1008,6 hPa 0,0 l/m 0 min 0 min 0 W/m 6,3 km/h (2 Bft)
01.05.2015 23:12 8,3 C 6,7 C 69 % 1008,6 hPa 0,0 l/m 0 min 0 min 0 W/m 4,2 km/h (1 Bft)
01.05.2015 23:14 8,3 C 6,7 C 69 % 1008,7 hPa 0,0 l/m 0 min 0 min 0 W/m 4,2 km/h (1 Bft)
01.05.2015 23:16 8,3 C 6,7 C 69 % 1008,7 hPa 0,0 l/m 0 min 0 min 0 W/m 6,3 km/h (2 Bft)
01.05.2015 23:18 8,3 C 6,7 C 70 % 1008,7 hPa 0,0 l/m 0 min 0 min 0 W/m 6,3 km/h (2 Bft)
01.05.2015 23:20 8,2 C 6,7 C 70 % 1008,7 hPa 0,0 l/m 0 min 0 min 0 W/m 6,3 km/h (2 Bft)
01.05.2015 23:22 8,2 C 6,7 C 70 % 1008,7 hPa 0,0 l/m 0 min 0 min 0 W/m 6,3 km/h (2 Bft)
01.05.2015 23:24 8,2 C 6,7 C 70 % 1008,7 hPa 0,0 l/m 0 min 0 min 0 W/m 6,3 km/h (2 Bft)
01.05.2015 23:26 8,2 C 6,7 C 70 % 1008,8 hPa 0,0 l/m 0 min 0 min 0 W/m 8,4 km/h (2 Bft)
01.05.2015 23:28 8,2 C 6,7 C 70 % 1008,9 hPa 0,0 l/m 0 min 0 min 0 W/m 6,3 km/h (2 Bft)
01.05.2015 23:30 8,2 C 6,7 C 70 % 1008,8 hPa 0,0 l/m 0 min 0 min 0 W/m 8,4 km/h (2 Bft)
01.05.2015 23:32 8,2 C 6,7 C 70 % 1008,8 hPa 0,0 l/m 0 min 0 min 0 W/m 6,3 km/h (2 Bft)
01.05.2015 23:34 8,2 C 6,7 C 70 % 1008,8 hPa 0,0 l/m 0 min 0 min 0 W/m 8,4 km/h (2 Bft)
01.05.2015 23:36 8,2 C 6,7 C 70 % 1008,8 hPa 0,0 l/m 0 min 0 min 0 W/m 8,4 km/h (2 Bft)
01.05.2015 23:38 8,3 C 6,7 C 70 % 1008,8 hPa 0,0 l/m 0 min 0 min 0 W/m 6,3 km/h (2 Bft)
01.05.2015 23:40 8,3 C 6,7 C 70 % 1008,8 hPa 0,0 l/m 0 min 0 min 0 W/m 6,3 km/h (2 Bft)
01.05.2015 23:42 8,3 C 6,7 C 71 % 1008,8 hPa 0,0 l/m 0 min 0 min 0 W/m 8,4 km/h (2 Bft)
01.05.2015 23:44 8,3 C 6,7 C 71 % 1008,9 hPa 0,0 l/m 0 min 0 min 0 W/m 8,4 km/h (2 Bft)
01.05.2015 23:46 8,3 C 6,7 C 71 % 1008,9 hPa 0,0 l/m 0 min 0 min 0 W/m 8,4 km/h (2 Bft)
01.05.2015 23:48 8,3 C 6,7 C 71 % 1008,9 hPa 0,0 l/m 0 min 0 min 0 W/m 8,4 km/h (2 Bft)
01.05.2015 23:50 8,3 C 6,7 C 71 % 1008,9 hPa 0,0 l/m 0 min 0 min 0 W/m 6,3 km/h (2 Bft)
01.05.2015 23:52 8,3 C 6,7 C 71 % 1008,9 hPa 0,0 l/m 0 min 0 min 0 W/m 6,3 km/h (2 Bft)
01.05.2015 23:54 8,3 C 6,7 C 71 % 1008,9 hPa 0,0 l/m 0 min 0 min 0 W/m 6,3 km/h (2 Bft)
01.05.2015 23:56 8,3 C 6,7 C 71 % 1009,0 hPa 0,0 l/m 0 min 0 min 0 W/m 8,4 km/h (2 Bft)
01.05.2015 23:58 8,3 C 6,7 C 71 % 1009,0 hPa 0,0 l/m 0 min 0 min 0 W/m 6,3 km/h (2 Bft)
_ Min-Zeit 06:24 05:40 16:56 18:34 - - - - 05:22
Minimum _ 2,5 C 2,8 C 47 % 1006,6 hPa - - - - 0,0 km/h (0 Bft)
_ Max-Zeit 14:48 14:40 08:10 00:08 00:00 06:20 00:00 13:40 18:38
Maximum _ 16,4 C 15,6 C 96 % 1010,8 hPa 0,0 l/m 2 min 0 min 1062 W/m 23,0 km/h
N (4 Bft)
Durchschnitt _ 9,1 C 8,0 C 72 % 1008,6 hPa #0,0 l/m #11:46 h #0 min. 376 W/m 8,1 km/h (2 Bft)
© 2015 W. Hausmann